KQA109 EGKK-HKJK
Flight info
| Callsign | KQA109 |
|---|---|
| Flight time | 7h 49m |
| Altitude | 39000 |
| Route | DVR UL9 KONAN DCT KOK UL607 SPI DCT ULNOK DCT VIBOM DCT NOMBO DCT RIDAR DCT RADIZ DCT NEMEK DCT VRANA/N0480F390 DCT DIMIS DCT SALUN N705 MMA L613 KIVIL N710 TAKRI P751 LXR M999 JDW/N0485F410 G650 RASKA/N0482F400 UG650 KONET UM308 RUDOL/N0477F410 UM308 LOTAS LOTAS4D |
| Aircraft | B788/H-SDE1E2E3FGHIJ2J3J4J5M1RWXYZ/LB1D1 |
Departure
| Time | 2026-05-04 10:42 |
|---|---|
| Airport | London Gatwick Airport (EGKK) |
Arrival
| Time | 2026-05-04 18:32 |
|---|---|
| Airport | Jomo Kenyatta International Airport (HKJK) |
| Time | Latitude | Longitude | Altitude | Speed | Heading |
|---|---|---|---|---|---|
| 2026-05-04 09:22 | 51.15619 | -0.16678 | 209 ft | 0 kts | 167° |
| 2026-05-04 09:23 | 51.15619 | -0.16677 | 209 ft | 0 kts | 167° |
| 2026-05-04 10:13 | 51.15623 | -0.16679 | 209 ft | 2 kts | 167° |
| 2026-05-04 10:14 | 51.15638 | -0.16684 | 209 ft | 2 kts | 169° |
| 2026-05-04 10:14 | 51.15654 | -0.16689 | 209 ft | 2 kts | 169° |
| 2026-05-04 10:16 | 51.15701 | -0.16593 | 209 ft | 0 kts | 257° |
| 2026-05-04 10:19 | 51.15701 | -0.16594 | 209 ft | 0 kts | 257° |
| 2026-05-04 10:19 | 51.15701 | -0.16595 | 209 ft | 0 kts | 257° |
| 2026-05-04 10:21 | 51.15701 | -0.16596 | 209 ft | 0 kts | 257° |
| 2026-05-04 10:22 | 51.15693 | -0.16651 | 209 ft | 6 kts | 258° |
| 2026-05-04 10:22 | 51.15683 | -0.16731 | 209 ft | 9 kts | 258° |
| 2026-05-04 10:22 | 51.15668 | -0.16844 | 209 ft | 12 kts | 257° |
| 2026-05-04 10:23 | 51.15651 | -0.16965 | 209 ft | 8 kts | 257° |
| 2026-05-04 10:23 | 51.15637 | -0.17070 | 209 ft | 11 kts | 257° |
| 2026-05-04 10:25 | 51.15626 | -0.17144 | 209 ft | 6 kts | 257° |
| 2026-05-04 10:25 | 51.15614 | -0.17216 | 209 ft | 6 kts | 254° |
| 2026-05-04 10:25 | 51.15609 | -0.17243 | 209 ft | 3 kts | 254° |
| 2026-05-04 10:25 | 51.15597 | -0.17284 | 209 ft | 4 kts | 230° |
| 2026-05-04 10:26 | 51.15573 | -0.17304 | 209 ft | 4 kts | 196° |
| 2026-05-04 10:26 | 51.15538 | -0.17304 | 209 ft | 6 kts | 173° |
| 2026-05-04 10:26 | 51.15486 | -0.17288 | 209 ft | 9 kts | 167° |
| 2026-05-04 10:26 | 51.15414 | -0.17262 | 209 ft | 12 kts | 167° |
| 2026-05-04 10:27 | 51.15373 | -0.17247 | 209 ft | 5 kts | 168° |
| 2026-05-04 10:27 | 51.15335 | -0.17243 | 209 ft | 6 kts | 193° |
| 2026-05-04 10:27 | 51.15315 | -0.17279 | 209 ft | 4 kts | 247° |
| 2026-05-04 10:27 | 51.15305 | -0.17336 | 209 ft | 7 kts | 261° |
| 2026-05-04 10:28 | 51.15299 | -0.17425 | 209 ft | 10 kts | 263° |
| 2026-05-04 10:28 | 51.15292 | -0.17500 | 209 ft | 11 kts | 261° |
| 2026-05-04 10:28 | 51.15266 | -0.17685 | 209 ft | 12 kts | 257° |
| 2026-05-04 10:28 | 51.15253 | -0.17778 | 209 ft | 14 kts | 257° |
| 2026-05-04 10:29 | 51.15236 | -0.17896 | 209 ft | 9 kts | 258° |
| 2026-05-04 10:29 | 51.15228 | -0.17959 | 209 ft | 1 kts | 258° |
| 2026-05-04 10:29 | 51.15225 | -0.17984 | 209 ft | 4 kts | 258° |
| 2026-05-04 10:29 | 51.15217 | -0.18045 | 209 ft | 7 kts | 258° |
| 2026-05-04 10:30 | 51.15204 | -0.18141 | 209 ft | 10 kts | 257° |
| 2026-05-04 10:30 | 51.15192 | -0.18228 | 209 ft | 6 kts | 257° |
| 2026-05-04 10:30 | 51.15184 | -0.18308 | 209 ft | 9 kts | 263° |
| 2026-05-04 10:30 | 51.15172 | -0.18419 | 209 ft | 11 kts | 258° |
| 2026-05-04 10:31 | 51.15163 | -0.18485 | 209 ft | 7 kts | 257° |
| 2026-05-04 10:31 | 51.15151 | -0.18573 | 209 ft | 10 kts | 257° |
| 2026-05-04 10:32 | 51.15067 | -0.19184 | 209 ft | 6 kts | 257° |
| 2026-05-04 10:33 | 51.15044 | -0.19245 | 209 ft | 6 kts | 211° |
| 2026-05-04 10:33 | 51.15015 | -0.19256 | 209 ft | 0 kts | 188° |
| 2026-05-04 10:33 | 51.15003 | -0.19258 | 209 ft | 4 kts | 188° |
| 2026-05-04 10:33 | 51.14979 | -0.19274 | 209 ft | 4 kts | 215° |
| 2026-05-04 10:34 | 51.14960 | -0.19317 | 209 ft | 6 kts | 244° |
| 2026-05-04 10:34 | 51.14948 | -0.19370 | 209 ft | 0 kts | 254° |
| 2026-05-04 10:34 | 51.14947 | -0.19375 | 209 ft | 0 kts | 257° |
| 2026-05-04 10:35 | 51.14946 | -0.19383 | 209 ft | 2 kts | 258° |
| 2026-05-04 10:35 | 51.14941 | -0.19424 | 209 ft | 5 kts | 258° |
| 2026-05-04 10:35 | 51.14931 | -0.19501 | 209 ft | 9 kts | 258° |
| 2026-05-04 10:36 | 51.14916 | -0.19612 | 209 ft | 12 kts | 258° |
| 2026-05-04 10:36 | 51.14897 | -0.19755 | 209 ft | 15 kts | 258° |
| 2026-05-04 10:36 | 51.14873 | -0.19928 | 209 ft | 17 kts | 258° |
| 2026-05-04 10:36 | 51.14849 | -0.20101 | 209 ft | 13 kts | 258° |
| 2026-05-04 10:37 | 51.14832 | -0.20226 | 209 ft | 13 kts | 258° |
| 2026-05-04 10:37 | 51.14811 | -0.20381 | 209 ft | 16 kts | 258° |
| 2026-05-04 10:37 | 51.14786 | -0.20564 | 209 ft | 18 kts | 258° |
| 2026-05-04 10:37 | 51.14773 | -0.20665 | 209 ft | 9 kts | 257° |
| 2026-05-04 10:39 | 51.14697 | -0.21207 | 209 ft | 0 kts | 257° |
| 2026-05-04 10:39 | 51.14697 | -0.21208 | 209 ft | 0 kts | 257° |
| 2026-05-04 10:40 | 51.14697 | -0.21209 | 209 ft | 1 kts | 257° |
| 2026-05-04 10:40 | 51.14694 | -0.21235 | 209 ft | 4 kts | 257° |
| 2026-05-04 10:40 | 51.14682 | -0.21293 | 209 ft | 6 kts | 241° |
| 2026-05-04 10:40 | 51.14652 | -0.21323 | 209 ft | 6 kts | 195° |
| 2026-05-04 10:41 | 51.14603 | -0.21319 | 209 ft | 9 kts | 169° |
| 2026-05-04 10:41 | 51.14542 | -0.21268 | 209 ft | 11 kts | 130° |
| 2026-05-04 10:41 | 51.14523 | -0.21152 | 209 ft | 11 kts | 81° |
| 2026-05-04 10:41 | 51.14533 | -0.21079 | 209 ft | 0 kts | 76° |
| 2026-05-04 10:42 | 51.14533 | -0.21077 | 209 ft | 1 kts | 76° |
| 2026-05-04 10:42 | 51.14588 | -0.20684 | 209 ft | 84 kts | 77° |
| 2026-05-04 10:42 | 51.14775 | -0.19324 | 209 ft | 164 kts | 77° |
| 2026-05-04 10:42 | 51.15032 | -0.17432 | 939 ft | 172 kts | 77° |
| 2026-05-04 10:43 | 51.15264 | -0.15573 | 2077 ft | 170 kts | 78° |
| 2026-05-04 10:44 | 51.17282 | -0.00340 | 5460 ft | 247 kts | 78° |
| 2026-05-04 10:45 | 51.17643 | 0.02389 | 5778 ft | 260 kts | 78° |
| 2026-05-04 10:45 | 51.18019 | 0.05242 | 5954 ft | 267 kts | 78° |
| 2026-05-04 10:45 | 51.18307 | 0.08213 | 5967 ft | 274 kts | 86° |
| 2026-05-04 10:45 | 51.18205 | 0.11215 | 6024 ft | 272 kts | 95° |
| 2026-05-04 10:46 | 51.18016 | 0.14323 | 6317 ft | 283 kts | 96° |
| 2026-05-04 10:46 | 51.17815 | 0.17471 | 7111 ft | 284 kts | 97° |
| 2026-05-04 10:46 | 51.17619 | 0.20605 | 7935 ft | 284 kts | 97° |
| 2026-05-04 10:46 | 51.17425 | 0.23739 | 8692 ft | 285 kts | 97° |
| 2026-05-04 10:47 | 51.17232 | 0.26897 | 9362 ft | 289 kts | 97° |
| 2026-05-04 10:47 | 51.17034 | 0.30130 | 9651 ft | 295 kts | 97° |
| 2026-05-04 10:47 | 51.16861 | 0.33419 | 9818 ft | 304 kts | 94° |
| 2026-05-04 10:47 | 51.16838 | 0.36820 | 10516 ft | 306 kts | 91° |
| 2026-05-04 10:49 | 51.16815 | 0.58497 | 13789 ft | 350 kts | 92° |
| 2026-05-04 10:49 | 51.16801 | 0.62353 | 14362 ft | 355 kts | 92° |
| 2026-05-04 10:50 | 51.16783 | 0.66542 | 14780 ft | 367 kts | 92° |
| 2026-05-04 10:51 | 51.16602 | 0.97436 | 17622 ft | 420 kts | 92° |
| 2026-05-04 10:52 | 51.16569 | 1.02107 | 18253 ft | 422 kts | 92° |
| 2026-05-04 10:52 | 51.16533 | 1.06795 | 18827 ft | 424 kts | 92° |
| 2026-05-04 10:52 | 51.16494 | 1.11523 | 19342 ft | 428 kts | 92° |
| 2026-05-04 10:54 | 51.15790 | 1.46109 | 22522 ft | 457 kts | 95° |
| 2026-05-04 10:54 | 51.15546 | 1.51160 | 22947 ft | 461 kts | 95° |
| 2026-05-04 10:56 | 51.13735 | 1.87404 | 25804 ft | 477 kts | 98° |
| 2026-05-04 10:56 | 51.13460 | 1.92696 | 26128 ft | 480 kts | 99° |
| 2026-05-04 10:56 | 51.13182 | 1.98014 | 26463 ft | 483 kts | 99° |
| 2026-05-04 10:57 | 51.12900 | 2.03358 | 26811 ft | 484 kts | 99° |
| 2026-05-04 10:57 | 51.12615 | 2.08719 | 27153 ft | 486 kts | 99° |
| 2026-05-04 10:57 | 51.12328 | 2.14085 | 27474 ft | 488 kts | 99° |
| 2026-05-04 10:57 | 51.12035 | 2.19484 | 27767 ft | 491 kts | 99° |
| 2026-05-04 10:58 | 51.11739 | 2.24911 | 28044 ft | 493 kts | 99° |
| 2026-05-04 10:58 | 51.11438 | 2.30369 | 28328 ft | 496 kts | 99° |
| 2026-05-04 10:58 | 51.11137 | 2.35783 | 28631 ft | 498 kts | 98° |
| 2026-05-04 10:58 | 51.10828 | 2.41288 | 28917 ft | 501 kts | 98° |
| 2026-05-04 10:59 | 51.10516 | 2.46823 | 29200 ft | 503 kts | 98° |
| 2026-05-04 10:59 | 51.10201 | 2.52392 | 29502 ft | 505 kts | 97° |
| 2026-05-04 10:59 | 51.09873 | 2.57995 | 29786 ft | 507 kts | 98° |
| 2026-05-04 10:59 | 51.09313 | 2.63538 | 30080 ft | 508 kts | 103° |
| 2026-05-04 11:00 | 51.08570 | 2.69043 | 30373 ft | 509 kts | 105° |
| 2026-05-04 11:01 | 51.01792 | 3.07360 | 32690 ft | 517 kts | 111° |
| 2026-05-04 11:02 | 51.00774 | 3.12856 | 33072 ft | 517 kts | 111° |
| 2026-05-04 11:02 | 50.99752 | 3.18369 | 33461 ft | 516 kts | 110° |
| 2026-05-04 11:05 | 50.85180 | 3.95172 | 37751 ft | 526 kts | 110° |
| 2026-05-04 11:06 | 50.84449 | 3.98921 | 37945 ft | 525 kts | 110° |
| 2026-05-04 11:06 | 50.83372 | 4.04426 | 38211 ft | 525 kts | 110° |
| 2026-05-04 11:06 | 50.82307 | 4.09863 | 38541 ft | 522 kts | 111° |
| 2026-05-04 11:06 | 50.81227 | 4.15333 | 38772 ft | 521 kts | 110° |
| 2026-05-04 11:08 | 50.73619 | 4.53565 | 39009 ft | 524 kts | 109° |
| 2026-05-04 11:10 | 50.66058 | 4.92155 | 38993 ft | 528 kts | 109° |
| 2026-05-04 11:12 | 50.57050 | 5.35789 | 38994 ft | 525 kts | 109° |
| 2026-05-04 11:12 | 50.54753 | 5.46760 | 38998 ft | 528 kts | 109° |
| 2026-05-04 11:13 | 50.52446 | 5.57734 | 39003 ft | 528 kts | 109° |
| 2026-05-04 11:13 | 50.50066 | 5.68656 | 38991 ft | 528 kts | 110° |
| 2026-05-04 11:14 | 50.49659 | 5.70487 | 38991 ft | 528 kts | 110° |
| 2026-05-04 11:16 | 50.37825 | 6.22678 | 38999 ft | 525 kts | 111° |
| 2026-05-04 11:16 | 50.35349 | 6.33446 | 38996 ft | 525 kts | 111° |
| 2026-05-04 11:17 | 50.32863 | 6.44195 | 39005 ft | 525 kts | 111° |
| 2026-05-04 11:19 | 50.22953 | 6.86536 | 38987 ft | 516 kts | 114° |
| 2026-05-04 11:19 | 50.20455 | 6.97066 | 38999 ft | 517 kts | 113° |
| 2026-05-04 11:20 | 50.17936 | 7.07640 | 38996 ft | 521 kts | 113° |
| 2026-05-04 11:20 | 50.15419 | 7.18169 | 38990 ft | 518 kts | 114° |
| 2026-05-04 11:22 | 50.05234 | 7.60205 | 38998 ft | 526 kts | 112° |
| 2026-05-04 11:23 | 50.02633 | 7.70834 | 38991 ft | 525 kts | 112° |
| 2026-05-04 11:25 | 49.93467 | 8.07851 | 39000 ft | 520 kts | 114° |
| 2026-05-04 11:25 | 49.90838 | 8.18338 | 38995 ft | 521 kts | 114° |
| 2026-05-04 11:27 | 49.74793 | 8.61467 | 38999 ft | 514 kts | 131° |
| 2026-05-04 11:28 | 49.70365 | 8.70078 | 39011 ft | 516 kts | 131° |
| 2026-05-04 11:28 | 49.65829 | 8.78800 | 39009 ft | 517 kts | 131° |
| 2026-05-04 11:29 | 49.61325 | 8.87443 | 39004 ft | 517 kts | 131° |
| 2026-05-04 11:29 | 49.56839 | 8.96029 | 39015 ft | 517 kts | 131° |
| 2026-05-04 11:33 | 49.28119 | 9.58784 | 39017 ft | 509 kts | 126° |
| 2026-05-04 11:33 | 49.24206 | 9.67846 | 39026 ft | 509 kts | 126° |
| 2026-05-04 11:34 | 49.20266 | 9.76939 | 39013 ft | 509 kts | 126° |
| 2026-05-04 11:34 | 49.16353 | 9.85939 | 39022 ft | 509 kts | 126° |
| 2026-05-04 11:35 | 49.12425 | 9.94944 | 39017 ft | 510 kts | 126° |
| 2026-05-04 11:35 | 49.08447 | 10.03878 | 38993 ft | 508 kts | 129° |
| 2026-05-04 11:36 | 49.03896 | 10.12086 | 39009 ft | 506 kts | 135° |
| 2026-05-04 11:36 | 48.99056 | 10.19863 | 38994 ft | 505 kts | 137° |
| 2026-05-04 11:37 | 48.94098 | 10.27443 | 39007 ft | 505 kts | 138° |
| 2026-05-04 11:37 | 48.89133 | 10.34940 | 39016 ft | 505 kts | 138° |
| 2026-05-04 11:38 | 48.84140 | 10.42464 | 39004 ft | 505 kts | 138° |
| 2026-05-04 11:38 | 48.79149 | 10.49967 | 39017 ft | 506 kts | 138° |
| 2026-05-04 11:39 | 48.74139 | 10.57476 | 39014 ft | 506 kts | 138° |
| 2026-05-04 11:41 | 48.56787 | 10.83958 | 39010 ft | 508 kts | 133° |
| 2026-05-04 11:41 | 48.52316 | 10.92257 | 39018 ft | 509 kts | 131° |
| 2026-05-04 11:42 | 48.47902 | 11.00541 | 39017 ft | 509 kts | 131° |
| 2026-05-04 11:42 | 48.43417 | 11.08863 | 39011 ft | 513 kts | 131° |
| 2026-05-04 11:43 | 48.38888 | 11.17200 | 39016 ft | 515 kts | 131° |
| 2026-05-04 11:43 | 48.34336 | 11.25549 | 39004 ft | 516 kts | 131° |
| 2026-05-04 11:44 | 48.29793 | 11.33863 | 39010 ft | 517 kts | 131° |
| 2026-05-04 11:44 | 48.25957 | 11.40863 | 39011 ft | 517 kts | 131° |
| 2026-05-04 11:45 | 48.21411 | 11.49136 | 39004 ft | 515 kts | 131° |
| 2026-05-04 11:45 | 48.16856 | 11.57398 | 39018 ft | 513 kts | 131° |
| 2026-05-04 11:46 | 48.12300 | 11.65636 | 39016 ft | 513 kts | 132° |
| 2026-05-04 11:46 | 48.07781 | 11.73783 | 39025 ft | 508 kts | 132° |
| 2026-05-04 11:47 | 48.03244 | 11.81933 | 39021 ft | 510 kts | 132° |
| 2026-05-04 11:47 | 47.98684 | 11.90104 | 39018 ft | 509 kts | 132° |
| 2026-05-04 11:48 | 47.94175 | 11.98157 | 39030 ft | 509 kts | 132° |
| 2026-05-04 11:48 | 47.89635 | 12.06243 | 39019 ft | 509 kts | 132° |
| 2026-05-04 11:49 | 47.85057 | 12.14372 | 39021 ft | 509 kts | 132° |
| 2026-05-04 11:49 | 47.80480 | 12.22474 | 39024 ft | 510 kts | 132° |
| 2026-05-04 11:50 | 47.75941 | 12.30484 | 39025 ft | 508 kts | 132° |
| 2026-05-04 11:50 | 47.71374 | 12.38521 | 39035 ft | 509 kts | 132° |
| 2026-05-04 11:51 | 47.66795 | 12.46556 | 39023 ft | 509 kts | 132° |
| 2026-05-04 11:51 | 47.62050 | 12.54312 | 39028 ft | 507 kts | 136° |
| 2026-05-04 11:52 | 47.57056 | 12.61703 | 39027 ft | 507 kts | 138° |
| 2026-05-04 11:52 | 47.51965 | 12.68956 | 39027 ft | 507 kts | 138° |
| 2026-05-04 11:53 | 47.46890 | 12.76111 | 39042 ft | 507 kts | 138° |
| 2026-05-04 11:53 | 47.41775 | 12.83297 | 39043 ft | 507 kts | 139° |
| 2026-05-04 11:55 | 47.21270 | 13.11926 | 39069 ft | 507 kts | 139° |
| 2026-05-04 11:56 | 47.16124 | 13.19061 | 39079 ft | 508 kts | 139° |
| 2026-05-04 11:56 | 47.11001 | 13.26144 | 39070 ft | 510 kts | 139° |
| 2026-05-04 11:57 | 47.05825 | 13.33279 | 39076 ft | 510 kts | 139° |
| 2026-05-04 11:57 | 47.00641 | 13.40407 | 39072 ft | 511 kts | 139° |
| 2026-05-04 11:58 | 46.95459 | 13.47512 | 39060 ft | 511 kts | 139° |
| 2026-05-04 11:58 | 46.90256 | 13.54626 | 39064 ft | 511 kts | 139° |
| 2026-05-04 11:59 | 46.85042 | 13.61735 | 39055 ft | 512 kts | 139° |
| 2026-05-04 11:59 | 46.79809 | 13.68850 | 39046 ft | 514 kts | 139° |
| 2026-05-04 12:00 | 46.74560 | 13.75967 | 39052 ft | 515 kts | 139° |
| 2026-05-04 12:00 | 46.69297 | 13.83084 | 39043 ft | 515 kts | 139° |
| 2026-05-04 12:01 | 46.64039 | 13.90175 | 39043 ft | 515 kts | 139° |
| 2026-05-04 12:02 | 46.45655 | 14.14809 | 39076 ft | 513 kts | 139° |
| 2026-05-04 12:03 | 46.40392 | 14.21818 | 39068 ft | 514 kts | 139° |
| 2026-05-04 12:03 | 46.35106 | 14.28838 | 39059 ft | 515 kts | 139° |
| 2026-05-04 12:04 | 46.29844 | 14.35808 | 39069 ft | 515 kts | 139° |
| 2026-05-04 12:04 | 46.24537 | 14.42817 | 39058 ft | 516 kts | 139° |
| 2026-05-04 12:05 | 46.19223 | 14.49817 | 39057 ft | 516 kts | 139° |
| 2026-05-04 12:05 | 46.13933 | 14.56765 | 39054 ft | 517 kts | 139° |
| 2026-05-04 12:06 | 46.08610 | 14.63739 | 39053 ft | 516 kts | 139° |
| 2026-05-04 12:06 | 46.03289 | 14.70691 | 39067 ft | 516 kts | 139° |
| 2026-05-04 12:07 | 45.97967 | 14.77625 | 39063 ft | 516 kts | 139° |
| 2026-05-04 12:07 | 45.92677 | 14.84499 | 39067 ft | 515 kts | 139° |
| 2026-05-04 12:08 | 45.87354 | 14.91397 | 39076 ft | 515 kts | 139° |
| 2026-05-04 12:08 | 45.82025 | 14.98285 | 39066 ft | 516 kts | 140° |
| 2026-05-04 12:09 | 45.76673 | 15.05180 | 39090 ft | 515 kts | 139° |
| 2026-05-04 12:09 | 45.71333 | 15.12044 | 39114 ft | 515 kts | 139° |
| 2026-05-04 12:10 | 45.65993 | 15.18893 | 39125 ft | 517 kts | 139° |
| 2026-05-04 12:10 | 45.60628 | 15.25751 | 39105 ft | 517 kts | 140° |
| 2026-05-04 12:11 | 45.55263 | 15.32615 | 39109 ft | 517 kts | 139° |
| 2026-05-04 12:11 | 45.49889 | 15.39503 | 39121 ft | 520 kts | 139° |
| 2026-05-04 12:12 | 45.44502 | 15.46391 | 39093 ft | 521 kts | 140° |
| 2026-05-04 12:12 | 45.39102 | 15.53274 | 39090 ft | 519 kts | 139° |
| 2026-05-04 12:14 | 45.17470 | 15.80674 | 39123 ft | 521 kts | 140° |
| 2026-05-04 12:15 | 45.12085 | 15.87450 | 39136 ft | 521 kts | 140° |
| 2026-05-04 12:15 | 45.06659 | 15.94258 | 39141 ft | 520 kts | 140° |
| 2026-05-04 12:16 | 45.01225 | 16.01058 | 39149 ft | 520 kts | 140° |
| 2026-05-04 12:16 | 44.95822 | 16.07803 | 39143 ft | 521 kts | 140° |
| 2026-05-04 12:17 | 44.90372 | 16.14589 | 39124 ft | 522 kts | 140° |
| 2026-05-04 12:17 | 44.84915 | 16.21365 | 39107 ft | 522 kts | 140° |
| 2026-05-04 12:18 | 44.79464 | 16.28116 | 39093 ft | 522 kts | 140° |
| 2026-05-04 12:18 | 44.74002 | 16.34862 | 39093 ft | 522 kts | 140° |
| 2026-05-04 12:19 | 44.68556 | 16.41571 | 39100 ft | 522 kts | 140° |
| 2026-05-04 12:19 | 44.63086 | 16.48293 | 39088 ft | 522 kts | 140° |
| 2026-05-04 12:20 | 44.58530 | 16.53878 | 39097 ft | 522 kts | 140° |
| 2026-05-04 12:20 | 44.52157 | 16.61668 | 39096 ft | 523 kts | 140° |
| 2026-05-04 12:21 | 44.47553 | 16.67280 | 39083 ft | 523 kts | 139° |
| 2026-05-04 12:21 | 44.42099 | 16.73918 | 39100 ft | 523 kts | 140° |
| 2026-05-04 12:22 | 44.36589 | 16.80606 | 39082 ft | 524 kts | 140° |
| 2026-05-04 12:22 | 44.31076 | 16.87278 | 39078 ft | 524 kts | 140° |
| 2026-05-04 12:23 | 44.25552 | 16.93946 | 39090 ft | 525 kts | 140° |
| 2026-05-04 12:23 | 44.20019 | 17.00607 | 39080 ft | 525 kts | 140° |
| 2026-05-04 12:24 | 44.14476 | 17.07263 | 39087 ft | 525 kts | 140° |
| 2026-05-04 12:24 | 44.08968 | 17.13863 | 39092 ft | 525 kts | 140° |
| 2026-05-04 12:25 | 44.03419 | 17.20494 | 39077 ft | 525 kts | 140° |
| 2026-05-04 12:25 | 43.97864 | 17.27115 | 39069 ft | 526 kts | 140° |
| 2026-05-04 12:26 | 43.92307 | 17.33720 | 39064 ft | 526 kts | 140° |
| 2026-05-04 12:26 | 43.86771 | 17.40284 | 39059 ft | 526 kts | 140° |
| 2026-05-04 12:27 | 43.81194 | 17.46879 | 39070 ft | 527 kts | 140° |
| 2026-05-04 12:27 | 43.75436 | 17.53163 | 39070 ft | 526 kts | 144° |
| 2026-05-04 12:28 | 43.69412 | 17.58960 | 39067 ft | 529 kts | 147° |
| 2026-05-04 12:28 | 43.63258 | 17.64526 | 39083 ft | 529 kts | 148° |
| 2026-05-04 12:29 | 43.57090 | 17.69979 | 39100 ft | 531 kts | 147° |
| 2026-05-04 12:29 | 43.50854 | 17.75476 | 39119 ft | 531 kts | 147° |
| 2026-05-04 12:30 | 43.44602 | 17.80980 | 39119 ft | 532 kts | 148° |
| 2026-05-04 12:30 | 43.38371 | 17.86454 | 39108 ft | 531 kts | 148° |
| 2026-05-04 12:31 | 43.32140 | 17.91914 | 39119 ft | 531 kts | 148° |
| 2026-05-04 12:31 | 43.25924 | 17.97346 | 39113 ft | 532 kts | 148° |
| 2026-05-04 12:32 | 43.16563 | 18.05503 | 39117 ft | 532 kts | 148° |
| 2026-05-04 12:33 | 43.10301 | 18.10944 | 39120 ft | 532 kts | 148° |
| 2026-05-04 12:33 | 43.04057 | 18.16355 | 39110 ft | 532 kts | 148° |
| 2026-05-04 12:34 | 42.97792 | 18.21772 | 39123 ft | 533 kts | 148° |
| 2026-05-04 12:34 | 42.91502 | 18.27196 | 39127 ft | 534 kts | 148° |
| 2026-05-04 12:35 | 42.85205 | 18.32612 | 39132 ft | 535 kts | 148° |
| 2026-05-04 12:35 | 42.78938 | 18.37991 | 39150 ft | 536 kts | 148° |
| 2026-05-04 12:36 | 42.72614 | 18.43407 | 39164 ft | 537 kts | 148° |
| 2026-05-04 12:36 | 42.66331 | 18.48770 | 39166 ft | 537 kts | 148° |
| 2026-05-04 12:37 | 42.59977 | 18.54184 | 39164 ft | 538 kts | 148° |
| 2026-05-04 12:37 | 42.53660 | 18.59555 | 39174 ft | 537 kts | 148° |
| 2026-05-04 12:38 | 42.47317 | 18.64932 | 39160 ft | 537 kts | 148° |
| 2026-05-04 12:38 | 42.40975 | 18.70294 | 39165 ft | 537 kts | 148° |
| 2026-05-04 12:39 | 42.34619 | 18.75655 | 39169 ft | 538 kts | 148° |
| 2026-05-04 12:39 | 42.28263 | 18.81004 | 39154 ft | 538 kts | 148° |
| 2026-05-04 12:40 | 42.21936 | 18.86319 | 39169 ft | 539 kts | 148° |
| 2026-05-04 12:40 | 42.15545 | 18.91674 | 39169 ft | 539 kts | 148° |
| 2026-05-04 12:41 | 42.09161 | 18.97003 | 39156 ft | 539 kts | 148° |
| 2026-05-04 12:41 | 42.02786 | 19.02319 | 39157 ft | 539 kts | 148° |
| 2026-05-04 12:42 | 41.96447 | 19.07593 | 39170 ft | 539 kts | 148° |
| 2026-05-04 12:42 | 41.90057 | 19.12896 | 39158 ft | 539 kts | 148° |
| 2026-05-04 12:43 | 41.83674 | 19.18179 | 39150 ft | 538 kts | 148° |
| 2026-05-04 12:43 | 41.77286 | 19.23453 | 39160 ft | 540 kts | 148° |
| 2026-05-04 12:44 | 41.70870 | 19.28739 | 39167 ft | 542 kts | 148° |
| 2026-05-04 12:44 | 41.64480 | 19.33992 | 39155 ft | 542 kts | 148° |
| 2026-05-04 12:45 | 41.58042 | 19.39271 | 39154 ft | 543 kts | 148° |
| 2026-05-04 12:45 | 41.51592 | 19.44550 | 39154 ft | 543 kts | 149° |
| 2026-05-04 12:46 | 41.45123 | 19.49827 | 39139 ft | 545 kts | 149° |
| 2026-05-04 12:46 | 41.38695 | 19.55058 | 39147 ft | 544 kts | 149° |
| 2026-05-04 12:47 | 41.32204 | 19.60330 | 39147 ft | 545 kts | 149° |
| 2026-05-04 12:47 | 41.25728 | 19.65577 | 39141 ft | 545 kts | 149° |
| 2026-05-04 12:48 | 41.19287 | 19.70784 | 39155 ft | 545 kts | 149° |
| 2026-05-04 12:48 | 41.12794 | 19.76020 | 39157 ft | 546 kts | 149° |
| 2026-05-04 12:49 | 41.06287 | 19.81255 | 39162 ft | 547 kts | 148° |
| 2026-05-04 12:49 | 40.99781 | 19.86479 | 39172 ft | 547 kts | 148° |
| 2026-05-04 12:50 | 40.93257 | 19.91702 | 39164 ft | 547 kts | 148° |
| 2026-05-04 12:50 | 40.86732 | 19.96917 | 39172 ft | 547 kts | 148° |
| 2026-05-04 12:51 | 40.80249 | 20.02085 | 39171 ft | 547 kts | 148° |
| 2026-05-04 12:51 | 40.73701 | 20.07294 | 39162 ft | 547 kts | 148° |
| 2026-05-04 12:52 | 40.67162 | 20.12483 | 39173 ft | 548 kts | 148° |
| 2026-05-04 12:52 | 40.60649 | 20.17640 | 39163 ft | 548 kts | 148° |
| 2026-05-04 12:53 | 40.54108 | 20.22805 | 39159 ft | 549 kts | 148° |
| 2026-05-04 12:53 | 40.47549 | 20.27973 | 39153 ft | 550 kts | 149° |
| 2026-05-04 12:54 | 40.40975 | 20.33140 | 39146 ft | 550 kts | 149° |
| 2026-05-04 12:54 | 40.34389 | 20.38307 | 39151 ft | 549 kts | 149° |
| 2026-05-04 12:55 | 40.27890 | 20.43392 | 39126 ft | 547 kts | 149° |
| 2026-05-04 12:55 | 40.21309 | 20.48528 | 39142 ft | 552 kts | 149° |
| 2026-05-04 12:56 | 40.14690 | 20.53684 | 39147 ft | 552 kts | 149° |
| 2026-05-04 12:56 | 40.08084 | 20.58738 | 39137 ft | 552 kts | 150° |
| 2026-05-04 12:57 | 40.01345 | 20.63573 | 39145 ft | 552 kts | 152° |
| 2026-05-04 12:57 | 39.94523 | 20.68325 | 39142 ft | 558 kts | 152° |
| 2026-05-04 12:58 | 39.87662 | 20.73068 | 39140 ft | 559 kts | 153° |
| 2026-05-04 12:58 | 39.80785 | 20.77816 | 39147 ft | 559 kts | 153° |
| 2026-05-04 12:59 | 39.73896 | 20.82567 | 39137 ft | 560 kts | 153° |
| 2026-05-04 12:59 | 39.67059 | 20.87272 | 39144 ft | 560 kts | 153° |
| 2026-05-04 13:00 | 39.60161 | 20.92009 | 39147 ft | 560 kts | 153° |
| 2026-05-04 13:00 | 39.53271 | 20.96729 | 39138 ft | 560 kts | 153° |
| 2026-05-04 13:01 | 39.46406 | 21.01420 | 39152 ft | 560 kts | 153° |
| 2026-05-04 13:01 | 39.39498 | 21.06133 | 39157 ft | 562 kts | 153° |
| 2026-05-04 13:02 | 39.32560 | 21.10851 | 39170 ft | 563 kts | 153° |
| 2026-05-04 13:02 | 39.25616 | 21.15564 | 39177 ft | 563 kts | 153° |
| 2026-05-04 13:03 | 39.19846 | 21.19472 | 39166 ft | 562 kts | 153° |
| 2026-05-04 13:03 | 39.11783 | 21.24922 | 39175 ft | 562 kts | 153° |
| 2026-05-04 13:04 | 39.05975 | 21.28839 | 39175 ft | 562 kts | 153° |
| 2026-05-04 13:04 | 38.99089 | 21.33473 | 39165 ft | 562 kts | 153° |
| 2026-05-04 13:05 | 38.92149 | 21.38133 | 39177 ft | 562 kts | 153° |
| 2026-05-04 13:05 | 38.85190 | 21.42796 | 39170 ft | 562 kts | 153° |
| 2026-05-04 13:06 | 38.78252 | 21.47434 | 39168 ft | 562 kts | 153° |
| 2026-05-04 13:06 | 38.71337 | 21.52046 | 39178 ft | 563 kts | 153° |
| 2026-05-04 13:07 | 38.64373 | 21.56681 | 39166 ft | 563 kts | 153° |
| 2026-05-04 13:07 | 38.57413 | 21.61304 | 39174 ft | 564 kts | 153° |
| 2026-05-04 13:08 | 38.50436 | 21.65929 | 39174 ft | 565 kts | 154° |
| 2026-05-04 13:08 | 38.43455 | 21.70543 | 39165 ft | 565 kts | 154° |
| 2026-05-04 13:09 | 38.36466 | 21.75157 | 39177 ft | 566 kts | 154° |
| 2026-05-04 13:09 | 38.29497 | 21.79742 | 39170 ft | 565 kts | 154° |
| 2026-05-04 13:10 | 38.22502 | 21.84335 | 39169 ft | 565 kts | 154° |
| 2026-05-04 13:10 | 38.15500 | 21.88924 | 39178 ft | 565 kts | 154° |
| 2026-05-04 13:11 | 38.08514 | 21.93493 | 39166 ft | 564 kts | 154° |
| 2026-05-04 13:11 | 38.01535 | 21.98048 | 39174 ft | 564 kts | 154° |
| 2026-05-04 13:12 | 37.94589 | 22.02572 | 39172 ft | 563 kts | 154° |
| 2026-05-04 13:12 | 37.87641 | 22.07088 | 39156 ft | 560 kts | 155° |
| 2026-05-04 13:13 | 37.80722 | 22.11575 | 39139 ft | 556 kts | 155° |
| 2026-05-04 13:13 | 37.73867 | 22.16011 | 39118 ft | 549 kts | 155° |
| 2026-05-04 13:14 | 37.67119 | 22.20369 | 39092 ft | 542 kts | 155° |
| 2026-05-04 13:14 | 37.60428 | 22.24679 | 39063 ft | 537 kts | 155° |
| 2026-05-04 13:15 | 37.53825 | 22.28925 | 39038 ft | 534 kts | 155° |
| 2026-05-04 13:15 | 37.47218 | 22.33165 | 39019 ft | 533 kts | 155° |
| 2026-05-04 13:16 | 37.40577 | 22.37419 | 39014 ft | 536 kts | 155° |
| 2026-05-04 13:16 | 37.33897 | 22.41688 | 39035 ft | 541 kts | 155° |
| 2026-05-04 13:17 | 37.27199 | 22.45961 | 39056 ft | 546 kts | 155° |
| 2026-05-04 13:17 | 37.20389 | 22.50297 | 39077 ft | 550 kts | 155° |
| 2026-05-04 13:18 | 37.13543 | 22.54646 | 39169 ft | 558 kts | 155° |
| 2026-05-04 13:18 | 37.06532 | 22.59090 | 39174 ft | 565 kts | 155° |
| 2026-05-04 13:19 | 36.99554 | 22.63508 | 39181 ft | 565 kts | 155° |
| 2026-05-04 13:19 | 36.92490 | 22.67970 | 39169 ft | 565 kts | 156° |
| 2026-05-04 13:20 | 36.85504 | 22.72371 | 39176 ft | 565 kts | 156° |
| 2026-05-04 13:20 | 36.78474 | 22.76791 | 39183 ft | 566 kts | 156° |
| 2026-05-04 13:21 | 36.71429 | 22.81212 | 39172 ft | 566 kts | 156° |
| 2026-05-04 13:21 | 36.64376 | 22.85629 | 39184 ft | 567 kts | 156° |
| 2026-05-04 13:22 | 36.57316 | 22.90041 | 39192 ft | 568 kts | 156° |
| 2026-05-04 13:22 | 36.50275 | 22.94432 | 39186 ft | 569 kts | 156° |
| 2026-05-04 13:23 | 36.43197 | 22.98837 | 39196 ft | 569 kts | 156° |
| 2026-05-04 13:23 | 36.36111 | 23.03238 | 39202 ft | 569 kts | 157° |
| 2026-05-04 13:24 | 36.29017 | 23.07635 | 39191 ft | 569 kts | 157° |
| 2026-05-04 13:24 | 36.21924 | 23.12022 | 39200 ft | 569 kts | 157° |
| 2026-05-04 13:25 | 36.11324 | 23.18562 | 39184 ft | 569 kts | 157° |
| 2026-05-04 13:25 | 36.04234 | 23.22926 | 39176 ft | 569 kts | 157° |
| 2026-05-04 13:26 | 35.97126 | 23.27291 | 39185 ft | 569 kts | 157° |
| 2026-05-04 13:26 | 35.90036 | 23.31637 | 39176 ft | 569 kts | 157° |
| 2026-05-04 13:27 | 35.82944 | 23.35975 | 39176 ft | 569 kts | 157° |
| 2026-05-04 13:27 | 35.75842 | 23.40311 | 39185 ft | 569 kts | 157° |
| 2026-05-04 13:28 | 35.68819 | 23.44591 | 39166 ft | 564 kts | 157° |
| 2026-05-04 13:28 | 35.61804 | 23.48859 | 39148 ft | 562 kts | 157° |
| 2026-05-04 13:29 | 35.54777 | 23.53121 | 39136 ft | 563 kts | 157° |
| 2026-05-04 13:29 | 35.47741 | 23.57383 | 39145 ft | 564 kts | 157° |
| 2026-05-04 13:30 | 35.40691 | 23.61643 | 39139 ft | 565 kts | 157° |
| 2026-05-04 13:30 | 35.33671 | 23.65878 | 39138 ft | 565 kts | 158° |
| 2026-05-04 13:31 | 35.26614 | 23.70127 | 39152 ft | 566 kts | 158° |
| 2026-05-04 13:31 | 35.19536 | 23.74381 | 39150 ft | 567 kts | 158° |
| 2026-05-04 13:32 | 35.12432 | 23.78641 | 39155 ft | 569 kts | 158° |
| 2026-05-04 13:32 | 35.05310 | 23.82904 | 39168 ft | 570 kts | 158° |
| 2026-05-04 13:33 | 34.98177 | 23.87166 | 39166 ft | 571 kts | 158° |
| 2026-05-04 13:33 | 34.91032 | 23.91427 | 39164 ft | 571 kts | 158° |
| 2026-05-04 13:34 | 34.83895 | 23.95674 | 39174 ft | 571 kts | 158° |
| 2026-05-04 13:34 | 34.76732 | 23.99929 | 39161 ft | 570 kts | 158° |
| 2026-05-04 13:35 | 34.66040 | 24.06265 | 39176 ft | 571 kts | 158° |
| 2026-05-04 13:36 | 34.58931 | 24.10467 | 39173 ft | 571 kts | 158° |
| 2026-05-04 13:36 | 34.51774 | 24.14689 | 39165 ft | 571 kts | 158° |
| 2026-05-04 13:37 | 34.44613 | 24.18905 | 39178 ft | 571 kts | 158° |
| 2026-05-04 13:37 | 34.37466 | 24.23106 | 39170 ft | 571 kts | 159° |
| 2026-05-04 13:38 | 34.30343 | 24.27283 | 39167 ft | 570 kts | 159° |
| 2026-05-04 13:38 | 34.23199 | 24.31466 | 39179 ft | 570 kts | 159° |
| 2026-05-04 13:39 | 34.16058 | 24.35639 | 39168 ft | 570 kts | 159° |
| 2026-05-04 13:39 | 34.08904 | 24.39812 | 39169 ft | 570 kts | 159° |
| 2026-05-04 13:40 | 34.01802 | 24.44135 | 39144 ft | 575 kts | 153° |
| 2026-05-04 13:40 | 33.95396 | 24.49852 | 39182 ft | 578 kts | 143° |
| 2026-05-04 13:41 | 33.89355 | 24.56287 | 39160 ft | 580 kts | 140° |
| 2026-05-04 13:41 | 33.83391 | 24.62810 | 39155 ft | 580 kts | 141° |
| 2026-05-04 13:42 | 33.74367 | 24.72531 | 39152 ft | 579 kts | 142° |
| 2026-05-04 13:42 | 33.68343 | 24.78976 | 39069 ft | 577 kts | 142° |
| 2026-05-04 13:43 | 33.62371 | 24.85341 | 39057 ft | 578 kts | 142° |
| 2026-05-04 13:43 | 33.56349 | 24.91746 | 39049 ft | 579 kts | 142° |
| 2026-05-04 13:44 | 33.50314 | 24.98157 | 39061 ft | 579 kts | 142° |
| 2026-05-04 13:44 | 33.44274 | 25.04561 | 39051 ft | 579 kts | 142° |
| 2026-05-04 13:45 | 33.38254 | 25.10933 | 39053 ft | 579 kts | 142° |
| 2026-05-04 13:45 | 33.32201 | 25.17326 | 39063 ft | 579 kts | 142° |
| 2026-05-04 13:46 | 33.27175 | 25.22629 | 39049 ft | 579 kts | 142° |
| 2026-05-04 13:46 | 33.21132 | 25.28988 | 39050 ft | 579 kts | 142° |
| 2026-05-04 13:47 | 33.15105 | 25.35316 | 39061 ft | 579 kts | 142° |
| 2026-05-04 13:47 | 33.09059 | 25.41656 | 39049 ft | 578 kts | 143° |
| 2026-05-04 13:48 | 33.03015 | 25.47982 | 39061 ft | 577 kts | 143° |
| 2026-05-04 13:48 | 32.96967 | 25.54297 | 39070 ft | 578 kts | 143° |
| 2026-05-04 13:49 | 32.90915 | 25.60609 | 39062 ft | 577 kts | 143° |
| 2026-05-04 13:49 | 32.84865 | 25.66906 | 39068 ft | 577 kts | 143° |
| 2026-05-04 13:50 | 32.78817 | 25.73187 | 39072 ft | 577 kts | 143° |
| 2026-05-04 13:50 | 32.72799 | 25.79424 | 39065 ft | 577 kts | 143° |
| 2026-05-04 13:51 | 32.66738 | 25.85698 | 39078 ft | 577 kts | 143° |
| 2026-05-04 13:51 | 32.60711 | 25.91920 | 39093 ft | 576 kts | 143° |
| 2026-05-04 13:52 | 32.51628 | 26.01285 | 39115 ft | 576 kts | 143° |
| 2026-05-04 13:53 | 32.45584 | 26.07500 | 39130 ft | 574 kts | 144° |
| 2026-05-04 13:53 | 32.39547 | 26.13691 | 39148 ft | 575 kts | 144° |
| 2026-05-04 13:54 | 32.30480 | 26.22977 | 39141 ft | 574 kts | 144° |
| 2026-05-04 13:55 | 32.21430 | 26.32217 | 39149 ft | 574 kts | 144° |
| 2026-05-04 13:55 | 32.12330 | 26.41481 | 39134 ft | 574 kts | 144° |
| 2026-05-04 13:56 | 32.06306 | 26.47597 | 39119 ft | 573 kts | 144° |
| 2026-05-04 13:57 | 31.97238 | 26.56792 | 39115 ft | 573 kts | 145° |
| 2026-05-04 13:58 | 31.85159 | 26.68996 | 39082 ft | 573 kts | 145° |
| 2026-05-04 13:58 | 31.76089 | 26.78133 | 39080 ft | 572 kts | 145° |
| 2026-05-04 13:59 | 31.70031 | 26.84223 | 39092 ft | 571 kts | 146° |
| 2026-05-04 14:00 | 31.60980 | 26.93299 | 39105 ft | 570 kts | 146° |
| 2026-05-04 14:00 | 31.51914 | 27.02365 | 39137 ft | 570 kts | 146° |
| 2026-05-04 14:01 | 31.45909 | 27.08357 | 39159 ft | 570 kts | 146° |
| 2026-05-04 14:02 | 31.36839 | 27.17389 | 39186 ft | 569 kts | 146° |
| 2026-05-04 14:02 | 31.30757 | 27.23299 | 39198 ft | 568 kts | 147° |
| 2026-05-04 14:03 | 31.24597 | 27.29062 | 39191 ft | 566 kts | 148° |
| 2026-05-04 14:03 | 31.18419 | 27.34762 | 39181 ft | 566 kts | 148° |
| 2026-05-04 14:04 | 31.09169 | 27.43271 | 39173 ft | 566 kts | 148° |
| 2026-05-04 14:04 | 31.02958 | 27.48979 | 39162 ft | 566 kts | 148° |
| 2026-05-04 14:05 | 30.93654 | 27.57514 | 39161 ft | 567 kts | 148° |
| 2026-05-04 14:06 | 30.87491 | 27.63156 | 39150 ft | 567 kts | 148° |
| 2026-05-04 14:06 | 30.81277 | 27.68835 | 39157 ft | 567 kts | 149° |
| 2026-05-04 14:07 | 30.75077 | 27.74494 | 39147 ft | 566 kts | 149° |
| 2026-05-04 14:07 | 30.68875 | 27.80144 | 39135 ft | 565 kts | 149° |
| 2026-05-04 14:08 | 30.62679 | 27.85779 | 39147 ft | 564 kts | 149° |
| 2026-05-04 14:08 | 30.56534 | 27.91354 | 39141 ft | 564 kts | 149° |
| 2026-05-04 14:09 | 30.47252 | 27.99762 | 39145 ft | 563 kts | 149° |
| 2026-05-04 14:10 | 30.37990 | 28.08131 | 39137 ft | 563 kts | 149° |
| 2026-05-04 14:10 | 30.31800 | 28.13713 | 39143 ft | 563 kts | 149° |
| 2026-05-04 14:11 | 30.25622 | 28.19275 | 39146 ft | 563 kts | 150° |
| 2026-05-04 14:11 | 30.16402 | 28.27560 | 39127 ft | 561 kts | 150° |
| 2026-05-04 14:12 | 30.10226 | 28.33095 | 39137 ft | 561 kts | 150° |
| 2026-05-04 14:13 | 30.00969 | 28.41377 | 39121 ft | 561 kts | 150° |
| 2026-05-04 14:13 | 29.94789 | 28.46896 | 39120 ft | 561 kts | 150° |
| 2026-05-04 14:14 | 29.88624 | 28.52394 | 39114 ft | 560 kts | 150° |
| 2026-05-04 14:14 | 29.79362 | 28.60634 | 39086 ft | 560 kts | 150° |
| 2026-05-04 14:15 | 29.67077 | 28.71608 | 39056 ft | 565 kts | 147° |
| 2026-05-04 14:16 | 29.61588 | 28.78215 | 39080 ft | 576 kts | 137° |
| 2026-05-04 14:16 | 29.59054 | 28.81787 | 39069 ft | 578 kts | 135° |
| 2026-05-04 14:17 | 29.51693 | 28.92799 | 39041 ft | 578 kts | 133° |
| 2026-05-04 14:18 | 29.44189 | 29.03524 | 39006 ft | 570 kts | 141° |
| 2026-05-04 14:19 | 29.32484 | 29.15500 | 38987 ft | 560 kts | 149° |
| 2026-05-04 14:19 | 29.26339 | 29.20945 | 38980 ft | 558 kts | 151° |
| 2026-05-04 14:20 | 29.20144 | 29.26305 | 38985 ft | 557 kts | 151° |
| 2026-05-04 14:20 | 29.13937 | 29.31663 | 38974 ft | 557 kts | 152° |
| 2026-05-04 14:21 | 29.04632 | 29.39492 | 38983 ft | 554 kts | 152° |
| 2026-05-04 14:21 | 28.98399 | 29.44671 | 38974 ft | 554 kts | 152° |
| 2026-05-04 14:22 | 28.92148 | 29.49857 | 38977 ft | 554 kts | 152° |
| 2026-05-04 14:22 | 28.85908 | 29.55029 | 38984 ft | 554 kts | 152° |
| 2026-05-04 14:23 | 28.76586 | 29.62743 | 38976 ft | 553 kts | 153° |
| 2026-05-04 14:24 | 28.70352 | 29.67892 | 38986 ft | 553 kts | 153° |
| 2026-05-04 14:24 | 28.64109 | 29.73040 | 38975 ft | 553 kts | 153° |
| 2026-05-04 14:25 | 28.57865 | 29.78182 | 38982 ft | 553 kts | 153° |
| 2026-05-04 14:25 | 28.48504 | 29.85876 | 38975 ft | 552 kts | 153° |
| 2026-05-04 14:26 | 28.42297 | 29.90972 | 38961 ft | 548 kts | 153° |
| 2026-05-04 14:26 | 28.36129 | 29.96022 | 38964 ft | 549 kts | 153° |
| 2026-05-04 14:27 | 28.29925 | 30.01095 | 38989 ft | 548 kts | 153° |
| 2026-05-04 14:27 | 28.26884 | 30.03586 | 39121 ft | 543 kts | 153° |
| 2026-05-04 14:27 | 28.23773 | 30.06127 | 39143 ft | 545 kts | 153° |
| 2026-05-04 14:28 | 28.17653 | 30.11115 | 39157 ft | 544 kts | 153° |
| 2026-05-04 14:28 | 28.12517 | 30.15297 | 39166 ft | 543 kts | 153° |
| 2026-05-04 14:29 | 28.00230 | 30.25284 | 39170 ft | 543 kts | 153° |
| 2026-05-04 14:30 | 27.94077 | 30.30274 | 39166 ft | 543 kts | 153° |
| 2026-05-04 14:31 | 27.84887 | 30.37718 | 39172 ft | 543 kts | 153° |
| 2026-05-04 14:32 | 27.72589 | 30.47650 | 39179 ft | 543 kts | 154° |
| 2026-05-04 14:32 | 27.66482 | 30.52568 | 39165 ft | 542 kts | 154° |
| 2026-05-04 14:33 | 27.60336 | 30.57517 | 39174 ft | 543 kts | 154° |
| 2026-05-04 14:33 | 27.54166 | 30.62477 | 39171 ft | 543 kts | 154° |
| 2026-05-04 14:34 | 27.48014 | 30.67413 | 39164 ft | 543 kts | 154° |
| 2026-05-04 14:34 | 27.41856 | 30.72348 | 39181 ft | 543 kts | 154° |
| 2026-05-04 14:35 | 27.35732 | 30.77248 | 39171 ft | 543 kts | 154° |
| 2026-05-04 14:35 | 27.29561 | 30.82179 | 39169 ft | 543 kts | 154° |
| 2026-05-04 14:36 | 27.23401 | 30.87098 | 39177 ft | 543 kts | 154° |
| 2026-05-04 14:36 | 27.17263 | 30.91988 | 39164 ft | 543 kts | 154° |
| 2026-05-04 14:37 | 27.11089 | 30.96901 | 39174 ft | 543 kts | 154° |
| 2026-05-04 14:37 | 27.04984 | 31.01970 | 39152 ft | 553 kts | 148° |
| 2026-05-04 14:38 | 26.99557 | 31.08196 | 39181 ft | 563 kts | 140° |
| 2026-05-04 14:38 | 26.99131 | 31.08741 | 39180 ft | 564 kts | 139° |
| 2026-05-04 14:39 | 26.98305 | 31.09818 | 39175 ft | 564 kts | 139° |
| 2026-05-04 14:39 | 26.93318 | 31.16634 | 39161 ft | 566 kts | 136° |
| 2026-05-04 14:40 | 26.85938 | 31.26890 | 39157 ft | 566 kts | 137° |
| 2026-05-04 14:40 | 26.80964 | 31.33738 | 39144 ft | 566 kts | 137° |
| 2026-05-04 14:41 | 26.75985 | 31.40560 | 39129 ft | 565 kts | 137° |
| 2026-05-04 14:42 | 26.66016 | 31.54189 | 39067 ft | 564 kts | 137° |
| 2026-05-04 14:42 | 26.61077 | 31.60927 | 39037 ft | 564 kts | 137° |
| 2026-05-04 14:43 | 26.56094 | 31.67715 | 39010 ft | 563 kts | 137° |
| 2026-05-04 14:43 | 26.51125 | 31.74474 | 38990 ft | 563 kts | 137° |
| 2026-05-04 14:44 | 26.46142 | 31.81240 | 38984 ft | 563 kts | 137° |
| 2026-05-04 14:44 | 26.41165 | 31.87990 | 38996 ft | 563 kts | 137° |
| 2026-05-04 14:45 | 26.36177 | 31.94745 | 38984 ft | 563 kts | 137° |
| 2026-05-04 14:45 | 26.31187 | 32.01492 | 38980 ft | 562 kts | 137° |
| 2026-05-04 14:46 | 26.26231 | 32.08184 | 38982 ft | 562 kts | 137° |
| 2026-05-04 14:46 | 26.21248 | 32.14901 | 38969 ft | 562 kts | 137° |
| 2026-05-04 14:47 | 26.16260 | 32.21616 | 38974 ft | 561 kts | 137° |
| 2026-05-04 14:47 | 26.11280 | 32.28309 | 38973 ft | 561 kts | 137° |
| 2026-05-04 14:48 | 26.06324 | 32.34960 | 38964 ft | 560 kts | 137° |
| 2026-05-04 14:48 | 26.01355 | 32.41623 | 38968 ft | 557 kts | 138° |
| 2026-05-04 14:49 | 25.96398 | 32.48254 | 38960 ft | 557 kts | 138° |
| 2026-05-04 14:49 | 25.91439 | 32.54878 | 38970 ft | 557 kts | 138° |
| 2026-05-04 14:50 | 25.86514 | 32.61450 | 38965 ft | 557 kts | 137° |
| 2026-05-04 14:50 | 25.81559 | 32.68053 | 38960 ft | 556 kts | 137° |
| 2026-05-04 14:51 | 25.76590 | 32.74664 | 38972 ft | 556 kts | 137° |
| 2026-05-04 14:51 | 25.71954 | 32.81645 | 38964 ft | 564 kts | 131° |
| 2026-05-04 14:52 | 25.67652 | 32.88939 | 38959 ft | 565 kts | 130° |
| 2026-05-04 14:52 | 25.63389 | 32.96201 | 38971 ft | 565 kts | 130° |
| 2026-05-04 14:53 | 25.59067 | 33.03465 | 38961 ft | 564 kts | 131° |
| 2026-05-04 14:53 | 25.54727 | 33.10710 | 38965 ft | 564 kts | 131° |
| 2026-05-04 14:54 | 25.50375 | 33.17957 | 38970 ft | 564 kts | 131° |
| 2026-05-04 14:54 | 25.46030 | 33.25184 | 38958 ft | 563 kts | 131° |
| 2026-05-04 14:55 | 25.41683 | 33.32406 | 38969 ft | 563 kts | 131° |
| 2026-05-04 14:55 | 25.37349 | 33.39593 | 38965 ft | 562 kts | 131° |
| 2026-05-04 14:56 | 25.33008 | 33.46779 | 38960 ft | 561 kts | 131° |
| 2026-05-04 14:56 | 25.28668 | 33.53954 | 38971 ft | 561 kts | 131° |
| 2026-05-04 14:57 | 25.24336 | 33.61111 | 38961 ft | 559 kts | 131° |
| 2026-05-04 14:57 | 25.20031 | 33.68211 | 38964 ft | 559 kts | 131° |
| 2026-05-04 14:58 | 25.15694 | 33.75352 | 38970 ft | 559 kts | 131° |
| 2026-05-04 14:58 | 25.11361 | 33.82480 | 38959 ft | 559 kts | 131° |
| 2026-05-04 14:59 | 25.07024 | 33.89604 | 38969 ft | 558 kts | 131° |
| 2026-05-04 15:00 | 25.00526 | 34.00255 | 38959 ft | 558 kts | 131° |
| 2026-05-04 15:00 | 24.96189 | 34.07352 | 38967 ft | 557 kts | 131° |
| 2026-05-04 15:01 | 24.89704 | 34.17940 | 38961 ft | 557 kts | 131° |
| 2026-05-04 15:01 | 24.85368 | 34.25009 | 38964 ft | 557 kts | 131° |
| 2026-05-04 15:02 | 24.81031 | 34.32067 | 38970 ft | 557 kts | 131° |
| 2026-05-04 15:02 | 24.76682 | 34.39137 | 38958 ft | 556 kts | 131° |
| 2026-05-04 15:03 | 24.72362 | 34.46148 | 38969 ft | 556 kts | 131° |
| 2026-05-04 15:03 | 24.68021 | 34.53184 | 38965 ft | 555 kts | 132° |
| 2026-05-04 15:04 | 24.63680 | 34.60212 | 38960 ft | 553 kts | 132° |
| 2026-05-04 15:04 | 24.59353 | 34.67202 | 38971 ft | 554 kts | 132° |
| 2026-05-04 15:05 | 24.55013 | 34.74203 | 38961 ft | 553 kts | 132° |
| 2026-05-04 15:05 | 24.50678 | 34.81190 | 38964 ft | 553 kts | 132° |
| 2026-05-04 15:06 | 24.46366 | 34.88127 | 38970 ft | 553 kts | 132° |
| 2026-05-04 15:07 | 24.39854 | 34.98587 | 38962 ft | 552 kts | 132° |
| 2026-05-04 15:07 | 24.35522 | 35.05535 | 38976 ft | 550 kts | 132° |
| 2026-05-04 15:08 | 24.31220 | 35.12421 | 38970 ft | 550 kts | 132° |
| 2026-05-04 15:08 | 24.27619 | 35.18178 | 38967 ft | 550 kts | 132° |
| 2026-05-04 15:09 | 24.22563 | 35.26250 | 38980 ft | 550 kts | 132° |
| 2026-05-04 15:09 | 24.18233 | 35.33154 | 38971 ft | 549 kts | 132° |
| 2026-05-04 15:10 | 24.11733 | 35.43499 | 38988 ft | 549 kts | 132° |
| 2026-05-04 15:11 | 24.05966 | 35.52659 | 38992 ft | 547 kts | 132° |
| 2026-05-04 15:11 | 24.00938 | 35.60635 | 39009 ft | 546 kts | 132° |
| 2026-05-04 15:12 | 23.97311 | 35.66371 | 39010 ft | 548 kts | 132° |
| 2026-05-04 15:12 | 23.92978 | 35.73220 | 39002 ft | 547 kts | 132° |
| 2026-05-04 15:13 | 23.88670 | 35.80018 | 39016 ft | 547 kts | 132° |
| 2026-05-04 15:13 | 23.84329 | 35.86858 | 39016 ft | 547 kts | 132° |
| 2026-05-04 15:14 | 23.80012 | 35.93650 | 39008 ft | 546 kts | 132° |
| 2026-05-04 15:14 | 23.75678 | 36.00460 | 39019 ft | 546 kts | 132° |
| 2026-05-04 15:15 | 23.71327 | 36.07286 | 38999 ft | 547 kts | 132° |
| 2026-05-04 15:15 | 23.66984 | 36.14091 | 38979 ft | 547 kts | 132° |
| 2026-05-04 15:16 | 23.60466 | 36.24287 | 38954 ft | 547 kts | 132° |
| 2026-05-04 15:17 | 23.53931 | 36.34489 | 38930 ft | 547 kts | 132° |
| 2026-05-04 15:17 | 23.47384 | 36.44689 | 38926 ft | 546 kts | 132° |
| 2026-05-04 15:18 | 23.43058 | 36.51419 | 38942 ft | 547 kts | 132° |
| 2026-05-04 15:19 | 23.36486 | 36.61623 | 38890 ft | 547 kts | 132° |
| 2026-05-04 15:19 | 23.29928 | 36.71788 | 38893 ft | 546 kts | 132° |
| 2026-05-04 15:20 | 23.25553 | 36.78556 | 38908 ft | 546 kts | 132° |
| 2026-05-04 15:20 | 23.21183 | 36.85309 | 38916 ft | 546 kts | 132° |
| 2026-05-04 15:21 | 23.16812 | 36.92055 | 38922 ft | 546 kts | 132° |
| 2026-05-04 15:22 | 23.10259 | 37.02150 | 38931 ft | 545 kts | 132° |
| 2026-05-04 15:22 | 23.03698 | 37.12238 | 38932 ft | 545 kts | 132° |
| 2026-05-04 15:23 | 22.99310 | 37.18955 | 38935 ft | 545 kts | 132° |
| 2026-05-04 15:23 | 22.94937 | 37.25630 | 38923 ft | 545 kts | 132° |
| 2026-05-04 15:24 | 22.86133 | 37.39041 | 38926 ft | 545 kts | 132° |
| 2026-05-04 15:25 | 22.81732 | 37.45733 | 38920 ft | 545 kts | 132° |
| 2026-05-04 15:26 | 22.75118 | 37.55774 | 38921 ft | 544 kts | 132° |
| 2026-05-04 15:26 | 22.68543 | 37.65765 | 38902 ft | 544 kts | 131° |
| 2026-05-04 15:27 | 22.61964 | 37.75801 | 38902 ft | 544 kts | 131° |
| 2026-05-04 15:28 | 22.55416 | 37.85774 | 38883 ft | 544 kts | 131° |
| 2026-05-04 15:29 | 22.48841 | 37.95763 | 38867 ft | 542 kts | 131° |
| 2026-05-04 15:30 | 22.33513 | 38.18840 | 38815 ft | 535 kts | 135° |
| 2026-05-04 15:31 | 22.27911 | 38.23757 | 38821 ft | 514 kts | 157° |
| 2026-05-04 15:31 | 22.24661 | 38.25306 | 38861 ft | 506 kts | 166° |
| 2026-05-04 15:32 | 22.07832 | 38.30168 | 38827 ft | 499 kts | 173° |
| 2026-05-04 15:34 | 21.90962 | 38.34544 | 38849 ft | 500 kts | 172° |
| 2026-05-04 15:34 | 21.80805 | 38.37191 | 38861 ft | 500 kts | 172° |
| 2026-05-04 15:35 | 21.70650 | 38.39834 | 38871 ft | 501 kts | 172° |
| 2026-05-04 15:36 | 21.60483 | 38.42477 | 38879 ft | 501 kts | 172° |
| 2026-05-04 15:36 | 21.53744 | 38.44226 | 38880 ft | 502 kts | 172° |
| 2026-05-04 15:37 | 21.46939 | 38.45994 | 38893 ft | 503 kts | 172° |
| 2026-05-04 15:37 | 21.40109 | 38.47762 | 39022 ft | 507 kts | 171° |
| 2026-05-04 15:38 | 21.33283 | 38.49532 | 39045 ft | 507 kts | 171° |
| 2026-05-04 15:38 | 21.26404 | 38.51315 | 39061 ft | 506 kts | 171° |
| 2026-05-04 15:39 | 21.19548 | 38.53087 | 39072 ft | 506 kts | 171° |
| 2026-05-04 15:40 | 21.09319 | 38.55727 | 39070 ft | 506 kts | 171° |
| 2026-05-04 15:40 | 21.02471 | 38.57492 | 39075 ft | 506 kts | 171° |
| 2026-05-04 15:41 | 20.95619 | 38.59256 | 39080 ft | 506 kts | 171° |
| 2026-05-04 15:41 | 20.88760 | 38.61021 | 39069 ft | 506 kts | 171° |
| 2026-05-04 15:42 | 20.81915 | 38.62780 | 39080 ft | 506 kts | 171° |
| 2026-05-04 15:42 | 20.75089 | 38.64533 | 39085 ft | 503 kts | 171° |
| 2026-05-04 15:43 | 20.68315 | 38.66269 | 39075 ft | 503 kts | 171° |
| 2026-05-04 15:43 | 20.61500 | 38.68015 | 39075 ft | 503 kts | 171° |
| 2026-05-04 15:44 | 20.54675 | 38.69762 | 39076 ft | 503 kts | 171° |
| 2026-05-04 15:44 | 20.47843 | 38.71509 | 39061 ft | 504 kts | 171° |
| 2026-05-04 15:45 | 20.41023 | 38.73253 | 39043 ft | 505 kts | 171° |
| 2026-05-04 15:45 | 20.34233 | 38.74988 | 39033 ft | 504 kts | 170° |
| 2026-05-04 15:46 | 20.27394 | 38.76733 | 39038 ft | 504 kts | 170° |
| 2026-05-04 15:46 | 20.20566 | 38.78473 | 39030 ft | 505 kts | 170° |
| 2026-05-04 15:47 | 20.13724 | 38.80216 | 39023 ft | 504 kts | 170° |
| 2026-05-04 15:47 | 20.06934 | 38.81944 | 39033 ft | 504 kts | 170° |
| 2026-05-04 15:48 | 20.00071 | 38.83689 | 39024 ft | 504 kts | 170° |
| 2026-05-04 15:48 | 19.89858 | 38.86282 | 39024 ft | 504 kts | 170° |
| 2026-05-04 15:49 | 19.83032 | 38.88013 | 39030 ft | 505 kts | 170° |
| 2026-05-04 15:49 | 19.76191 | 38.89747 | 39017 ft | 505 kts | 170° |
| 2026-05-04 15:50 | 19.70509 | 38.91186 | 39024 ft | 505 kts | 170° |
| 2026-05-04 15:50 | 19.63868 | 38.92866 | 39030 ft | 506 kts | 170° |
| 2026-05-04 15:51 | 19.57058 | 38.94587 | 39018 ft | 506 kts | 170° |
| 2026-05-04 15:51 | 19.50199 | 38.96320 | 39028 ft | 506 kts | 170° |
| 2026-05-04 15:52 | 19.43344 | 38.98050 | 39026 ft | 506 kts | 170° |
| 2026-05-04 15:52 | 19.36524 | 38.99770 | 39018 ft | 506 kts | 170° |
| 2026-05-04 15:53 | 19.30785 | 39.01216 | 39032 ft | 506 kts | 170° |
| 2026-05-04 15:53 | 19.23935 | 39.02940 | 39039 ft | 507 kts | 170° |
| 2026-05-04 15:54 | 19.17049 | 39.04558 | 38998 ft | 505 kts | 175° |
| 2026-05-04 15:54 | 19.10073 | 39.05051 | 39036 ft | 502 kts | 181° |
| 2026-05-04 15:55 | 19.03100 | 39.05090 | 39019 ft | 501 kts | 184° |
| 2026-05-04 15:55 | 18.96154 | 39.04835 | 39025 ft | 500 kts | 185° |
| 2026-05-04 15:56 | 18.89193 | 39.04469 | 39032 ft | 500 kts | 186° |
| 2026-05-04 15:56 | 18.82238 | 39.04083 | 39023 ft | 499 kts | 186° |
| 2026-05-04 15:57 | 18.75304 | 39.03699 | 39033 ft | 499 kts | 186° |
| 2026-05-04 15:57 | 18.68404 | 39.03319 | 39038 ft | 499 kts | 186° |
| 2026-05-04 15:58 | 18.61468 | 39.02938 | 39029 ft | 498 kts | 186° |
| 2026-05-04 15:58 | 18.54539 | 39.02558 | 39040 ft | 498 kts | 186° |
| 2026-05-04 15:59 | 18.47607 | 39.02178 | 39038 ft | 498 kts | 186° |
| 2026-05-04 15:59 | 18.40676 | 39.01798 | 39020 ft | 498 kts | 186° |
| 2026-05-04 16:00 | 18.33745 | 39.01419 | 39017 ft | 498 kts | 186° |
| 2026-05-04 16:00 | 18.26864 | 39.01043 | 39028 ft | 498 kts | 186° |
| 2026-05-04 16:01 | 18.19931 | 39.00665 | 39017 ft | 498 kts | 186° |
| 2026-05-04 16:01 | 18.12994 | 39.00350 | 39023 ft | 498 kts | 185° |
| 2026-05-04 16:02 | 18.06106 | 39.00101 | 39029 ft | 498 kts | 185° |
| 2026-05-04 16:03 | 17.95704 | 38.99732 | 39019 ft | 497 kts | 185° |
| 2026-05-04 16:03 | 17.88773 | 38.99486 | 39031 ft | 497 kts | 184° |
| 2026-05-04 16:04 | 17.81840 | 38.99239 | 39020 ft | 498 kts | 184° |
| 2026-05-04 16:04 | 17.71496 | 38.98868 | 39029 ft | 498 kts | 184° |
| 2026-05-04 16:05 | 17.64567 | 38.98619 | 39024 ft | 499 kts | 184° |
| 2026-05-04 16:06 | 17.54143 | 38.98245 | 39026 ft | 499 kts | 184° |
| 2026-05-04 16:07 | 17.40273 | 38.97745 | 39017 ft | 500 kts | 184° |
| 2026-05-04 16:08 | 17.26352 | 38.97237 | 39025 ft | 501 kts | 184° |
| 2026-05-04 16:09 | 17.08911 | 38.96601 | 39029 ft | 501 kts | 184° |
| 2026-05-04 16:10 | 16.94985 | 38.96094 | 39029 ft | 501 kts | 184° |
| 2026-05-04 16:11 | 16.80986 | 38.95584 | 39226 ft | 503 kts | 184° |
| 2026-05-04 16:12 | 16.59959 | 38.94819 | 39262 ft | 504 kts | 184° |
| 2026-05-04 16:13 | 16.45957 | 38.94312 | 39268 ft | 505 kts | 184° |
| 2026-05-04 16:14 | 16.31913 | 38.93803 | 39276 ft | 505 kts | 184° |
| 2026-05-04 16:16 | 16.14328 | 38.93168 | 39281 ft | 507 kts | 184° |
| 2026-05-04 16:17 | 15.96724 | 38.92533 | 39304 ft | 506 kts | 184° |
| 2026-05-04 16:18 | 15.82647 | 38.92027 | 39267 ft | 507 kts | 184° |
| 2026-05-04 16:19 | 15.65003 | 38.91393 | 39185 ft | 508 kts | 184° |
| 2026-05-04 16:20 | 15.47368 | 38.90759 | 39096 ft | 506 kts | 184° |
| 2026-05-04 16:22 | 15.29676 | 38.90130 | 39029 ft | 509 kts | 184° |
| 2026-05-04 16:23 | 15.08459 | 38.90055 | 39093 ft | 509 kts | 181° |
| 2026-05-04 16:25 | 14.87200 | 38.90040 | 39222 ft | 509 kts | 181° |
| 2026-05-04 16:26 | 14.62423 | 38.90015 | 39197 ft | 508 kts | 181° |
| 2026-05-04 16:28 | 14.44802 | 38.89947 | 39198 ft | 506 kts | 182° |
| 2026-05-04 16:29 | 14.20176 | 38.89676 | 39151 ft | 506 kts | 182° |
| 2026-05-04 16:31 | 14.03742 | 38.89489 | 39195 ft | 507 kts | 182° |
| 2026-05-04 16:32 | 13.82663 | 38.89115 | 39226 ft | 507 kts | 182° |
| 2026-05-04 16:33 | 13.68727 | 38.88863 | 39192 ft | 507 kts | 182° |
| 2026-05-04 16:34 | 13.58208 | 38.88672 | 39211 ft | 503 kts | 182° |
| 2026-05-04 16:35 | 13.37397 | 38.88299 | 39244 ft | 503 kts | 182° |
| 2026-05-04 16:36 | 13.26683 | 38.88106 | 39265 ft | 502 kts | 181° |
| 2026-05-04 16:37 | 13.16251 | 38.87917 | 39288 ft | 501 kts | 181° |
| 2026-05-04 16:38 | 13.02255 | 38.87666 | 39311 ft | 502 kts | 181° |
| 2026-05-04 16:39 | 12.84802 | 38.87277 | 39313 ft | 505 kts | 181° |
| 2026-05-04 16:40 | 12.70680 | 38.86880 | 39287 ft | 510 kts | 181° |
| 2026-05-04 16:41 | 12.52877 | 38.86382 | 39232 ft | 512 kts | 181° |
| 2026-05-04 16:43 | 12.35081 | 38.85883 | 39160 ft | 511 kts | 181° |
| 2026-05-04 16:43 | 12.24412 | 38.85586 | 39117 ft | 512 kts | 181° |
| 2026-05-04 16:45 | 12.02983 | 38.84994 | 39051 ft | 514 kts | 181° |
| 2026-05-04 16:46 | 11.85109 | 38.84500 | 39044 ft | 514 kts | 181° |
| 2026-05-04 16:47 | 11.70775 | 38.84105 | 39053 ft | 514 kts | 181° |
| 2026-05-04 16:48 | 11.56511 | 38.83712 | 39064 ft | 514 kts | 181° |
| 2026-05-04 16:49 | 11.42174 | 38.83318 | 39059 ft | 515 kts | 181° |
| 2026-05-04 16:50 | 11.27826 | 38.82923 | 39057 ft | 516 kts | 181° |
| 2026-05-04 16:51 | 11.17010 | 38.82628 | 39047 ft | 519 kts | 182° |
| 2026-05-04 16:52 | 11.02588 | 38.82227 | 39035 ft | 519 kts | 181° |
| 2026-05-04 16:53 | 10.91746 | 38.81930 | 39046 ft | 519 kts | 181° |
| 2026-05-04 16:54 | 10.77383 | 38.81536 | 39055 ft | 516 kts | 181° |
| 2026-05-04 16:55 | 10.55783 | 38.80946 | 39072 ft | 518 kts | 181° |
| 2026-05-04 16:56 | 10.37753 | 38.80453 | 39071 ft | 519 kts | 180° |
| 2026-05-04 16:57 | 10.26891 | 38.80156 | 39059 ft | 520 kts | 180° |
| 2026-05-04 16:58 | 10.12392 | 38.79761 | 39054 ft | 521 kts | 180° |
| 2026-05-04 17:00 | 9.90614 | 38.79167 | 39066 ft | 522 kts | 180° |
| 2026-05-04 17:01 | 9.72483 | 38.78672 | 39102 ft | 520 kts | 180° |
| 2026-05-04 17:02 | 9.58040 | 38.78280 | 39151 ft | 519 kts | 180° |
| 2026-05-04 17:03 | 9.47262 | 38.77987 | 39197 ft | 518 kts | 180° |
| 2026-05-04 17:03 | 9.36430 | 38.77693 | 39243 ft | 517 kts | 181° |
| 2026-05-04 17:04 | 9.21921 | 38.77298 | 39280 ft | 522 kts | 181° |
| 2026-05-04 17:05 | 9.07489 | 38.75962 | 39303 ft | 520 kts | 190° |
| 2026-05-04 17:06 | 8.96936 | 38.73573 | 39296 ft | 520 kts | 193° |
| 2026-05-04 17:07 | 8.88787 | 38.71528 | 39295 ft | 522 kts | 194° |
| 2026-05-04 17:07 | 8.79385 | 38.69164 | 39262 ft | 522 kts | 195° |
| 2026-05-04 17:08 | 8.68849 | 38.66523 | 39225 ft | 519 kts | 195° |
| 2026-05-04 17:09 | 8.61840 | 38.64767 | 39203 ft | 519 kts | 195° |
| 2026-05-04 17:09 | 8.54842 | 38.63014 | 39187 ft | 518 kts | 195° |
| 2026-05-04 17:10 | 8.38547 | 38.58942 | 39199 ft | 515 kts | 195° |
| 2026-05-04 17:11 | 8.31573 | 38.57199 | 39214 ft | 516 kts | 195° |
| 2026-05-04 17:12 | 8.21118 | 38.54586 | 39238 ft | 519 kts | 195° |
| 2026-05-04 17:13 | 8.03554 | 38.50209 | 39274 ft | 520 kts | 194° |
| 2026-05-04 17:14 | 7.89493 | 38.46711 | 39245 ft | 518 kts | 195° |
| 2026-05-04 17:15 | 7.79013 | 38.44104 | 39223 ft | 515 kts | 195° |
| 2026-05-04 17:16 | 7.65176 | 38.40663 | 39183 ft | 511 kts | 195° |
| 2026-05-04 17:17 | 7.51383 | 38.37234 | 39128 ft | 509 kts | 196° |
| 2026-05-04 17:18 | 7.37700 | 38.33599 | 39060 ft | 507 kts | 197° |
| 2026-05-04 17:19 | 7.24071 | 38.29888 | 39008 ft | 505 kts | 197° |
| 2026-05-04 17:20 | 7.10476 | 38.26195 | 38995 ft | 509 kts | 197° |
| 2026-05-04 17:20 | 7.00176 | 38.23400 | 38994 ft | 513 kts | 197° |
| 2026-05-04 17:21 | 6.86269 | 38.19628 | 39002 ft | 521 kts | 196° |
| 2026-05-04 17:22 | 6.79305 | 38.17743 | 38988 ft | 520 kts | 196° |
| 2026-05-04 17:23 | 6.65389 | 38.13975 | 38996 ft | 518 kts | 196° |
| 2026-05-04 17:24 | 6.55011 | 38.11154 | 38999 ft | 505 kts | 194° |
| 2026-05-04 17:25 | 6.41446 | 38.07470 | 38991 ft | 508 kts | 194° |
| 2026-05-04 17:26 | 6.27746 | 38.03736 | 38990 ft | 511 kts | 194° |
| 2026-05-04 17:27 | 6.10615 | 37.99069 | 38994 ft | 511 kts | 194° |
| 2026-05-04 17:28 | 5.96862 | 37.95325 | 39002 ft | 510 kts | 194° |
| 2026-05-04 17:29 | 5.76298 | 37.89730 | 39006 ft | 510 kts | 194° |
| 2026-05-04 17:31 | 5.59181 | 37.85074 | 39021 ft | 507 kts | 193° |
| 2026-05-04 17:32 | 5.42167 | 37.80456 | 39058 ft | 506 kts | 193° |
| 2026-05-04 17:33 | 5.28593 | 37.76770 | 39058 ft | 506 kts | 193° |
| 2026-05-04 17:34 | 5.14973 | 37.73073 | 39048 ft | 506 kts | 193° |
| 2026-05-04 17:35 | 4.97983 | 37.68464 | 39047 ft | 506 kts | 193° |
| 2026-05-04 17:36 | 4.91175 | 37.66618 | 39059 ft | 506 kts | 193° |
| 2026-05-04 17:36 | 4.84413 | 37.64785 | 39053 ft | 506 kts | 193° |
| 2026-05-04 17:37 | 4.77610 | 37.62940 | 39049 ft | 506 kts | 193° |
| 2026-05-04 17:37 | 4.70801 | 37.61095 | 39060 ft | 506 kts | 193° |
| 2026-05-04 17:38 | 4.63988 | 37.59249 | 39050 ft | 507 kts | 193° |
| 2026-05-04 17:38 | 4.57154 | 37.57398 | 39051 ft | 506 kts | 193° |
| 2026-05-04 17:39 | 4.46980 | 37.54642 | 39054 ft | 507 kts | 193° |
| 2026-05-04 17:39 | 4.40160 | 37.52795 | 39048 ft | 508 kts | 193° |
| 2026-05-04 17:40 | 4.33344 | 37.50949 | 39060 ft | 508 kts | 193° |
| 2026-05-04 17:40 | 4.26509 | 37.49099 | 39050 ft | 510 kts | 193° |
| 2026-05-04 17:41 | 4.19643 | 37.47240 | 39053 ft | 510 kts | 193° |
| 2026-05-04 17:41 | 4.12826 | 37.45395 | 39059 ft | 510 kts | 193° |
| 2026-05-04 17:42 | 4.05969 | 37.43540 | 39047 ft | 510 kts | 193° |
| 2026-05-04 17:42 | 3.99153 | 37.41674 | 39058 ft | 510 kts | 193° |
| 2026-05-04 17:43 | 3.92308 | 37.39676 | 39054 ft | 512 kts | 194° |
| 2026-05-04 17:43 | 3.85471 | 37.37647 | 39048 ft | 511 kts | 194° |
| 2026-05-04 17:44 | 3.78640 | 37.35624 | 39060 ft | 512 kts | 194° |
| 2026-05-04 17:44 | 3.71795 | 37.33600 | 39052 ft | 512 kts | 194° |
| 2026-05-04 17:45 | 3.65001 | 37.31593 | 39049 ft | 512 kts | 194° |
| 2026-05-04 17:45 | 3.58163 | 37.29573 | 39060 ft | 512 kts | 194° |
| 2026-05-04 17:46 | 3.51305 | 37.27548 | 39049 ft | 512 kts | 194° |
| 2026-05-04 17:46 | 3.45616 | 37.25868 | 39049 ft | 514 kts | 194° |
| 2026-05-04 17:47 | 3.38749 | 37.23842 | 39060 ft | 514 kts | 194° |
| 2026-05-04 17:47 | 3.31891 | 37.21818 | 39049 ft | 514 kts | 194° |
| 2026-05-04 17:48 | 3.25022 | 37.19791 | 39054 ft | 514 kts | 193° |
| 2026-05-04 17:48 | 3.18151 | 37.17763 | 39058 ft | 515 kts | 193° |
| 2026-05-04 17:49 | 3.11322 | 37.15749 | 39047 ft | 515 kts | 193° |
| 2026-05-04 17:49 | 3.04450 | 37.13721 | 39058 ft | 515 kts | 193° |
| 2026-05-04 17:50 | 2.97575 | 37.11694 | 39054 ft | 516 kts | 193° |
| 2026-05-04 17:50 | 2.90687 | 37.09662 | 39049 ft | 516 kts | 193° |
| 2026-05-04 17:51 | 2.83750 | 37.07617 | 39060 ft | 516 kts | 193° |
| 2026-05-04 17:51 | 2.76899 | 37.05597 | 39048 ft | 517 kts | 193° |
| 2026-05-04 17:52 | 2.69998 | 37.03562 | 39048 ft | 516 kts | 193° |
| 2026-05-04 17:52 | 2.63104 | 37.01530 | 39055 ft | 517 kts | 193° |
| 2026-05-04 17:53 | 2.56207 | 36.99497 | 39042 ft | 517 kts | 193° |
| 2026-05-04 17:53 | 2.49309 | 36.97464 | 39051 ft | 517 kts | 193° |
| 2026-05-04 17:54 | 2.42397 | 36.95427 | 39049 ft | 517 kts | 193° |
| 2026-05-04 17:54 | 2.35485 | 36.93390 | 39042 ft | 517 kts | 193° |
| 2026-05-04 17:55 | 2.28576 | 36.91355 | 39054 ft | 517 kts | 193° |
| 2026-05-04 17:55 | 2.21663 | 36.89319 | 39046 ft | 517 kts | 193° |
| 2026-05-04 17:56 | 2.14747 | 36.87281 | 39049 ft | 517 kts | 193° |
| 2026-05-04 17:56 | 2.07873 | 36.85257 | 39056 ft | 517 kts | 193° |
| 2026-05-04 17:57 | 2.00953 | 36.83219 | 39044 ft | 517 kts | 193° |
| 2026-05-04 17:57 | 1.94071 | 36.81192 | 39052 ft | 518 kts | 193° |
| 2026-05-04 17:58 | 1.87151 | 36.79155 | 39044 ft | 518 kts | 193° |
| 2026-05-04 17:58 | 1.80233 | 36.77118 | 39036 ft | 518 kts | 193° |
| 2026-05-04 17:59 | 1.73315 | 36.75081 | 39041 ft | 518 kts | 193° |
| 2026-05-04 18:00 | 1.62936 | 36.72026 | 39023 ft | 518 kts | 193° |
| 2026-05-04 18:00 | 1.56028 | 36.69992 | 39026 ft | 518 kts | 193° |
| 2026-05-04 18:01 | 1.49145 | 36.67966 | 39018 ft | 518 kts | 193° |
| 2026-05-04 18:01 | 1.42210 | 36.65925 | 39054 ft | 519 kts | 193° |
| 2026-05-04 18:02 | 1.31821 | 36.62868 | 39088 ft | 519 kts | 193° |
| 2026-05-04 18:02 | 1.24957 | 36.60848 | 39099 ft | 519 kts | 193° |
| 2026-05-04 18:03 | 1.18029 | 36.58810 | 39097 ft | 519 kts | 193° |
| 2026-05-04 18:03 | 1.11086 | 36.56767 | 39102 ft | 518 kts | 193° |
| 2026-05-04 18:04 | 1.04203 | 36.54788 | 39101 ft | 517 kts | 189° |
| 2026-05-04 18:05 | 0.93540 | 36.53965 | 39144 ft | 511 kts | 177° |
| 2026-05-04 18:05 | 0.86436 | 36.54069 | 39145 ft | 509 kts | 174° |
| 2026-05-04 18:06 | 0.75811 | 36.54504 | 39150 ft | 509 kts | 174° |
| 2026-05-04 18:06 | 0.68782 | 36.54815 | 39157 ft | 509 kts | 174° |
| 2026-05-04 18:07 | 0.61658 | 36.55126 | 38972 ft | 513 kts | 174° |
| 2026-05-04 18:07 | 0.58086 | 36.55281 | 38579 ft | 514 kts | 174° |
| 2026-05-04 18:07 | 0.54499 | 36.55436 | 38003 ft | 515 kts | 174° |
| 2026-05-04 18:08 | 0.50961 | 36.55588 | 37402 ft | 511 kts | 174° |
| 2026-05-04 18:08 | 0.47445 | 36.55737 | 36847 ft | 501 kts | 174° |
| 2026-05-04 18:08 | 0.43985 | 36.55883 | 36322 ft | 491 kts | 174° |
| 2026-05-04 18:08 | 0.40610 | 36.56026 | 35835 ft | 482 kts | 174° |
| 2026-05-04 18:09 | 0.33945 | 36.56315 | 34922 ft | 483 kts | 174° |
| 2026-05-04 18:09 | 0.27121 | 36.56618 | 33991 ft | 499 kts | 174° |
| 2026-05-04 18:10 | 0.23612 | 36.56770 | 33499 ft | 499 kts | 174° |
| 2026-05-04 18:10 | 0.20143 | 36.56919 | 33013 ft | 496 kts | 174° |
| 2026-05-04 18:10 | 0.16755 | 36.57063 | 32544 ft | 491 kts | 174° |
| 2026-05-04 18:10 | 0.13362 | 36.57208 | 32076 ft | 486 kts | 175° |
| 2026-05-04 18:11 | 0.09997 | 36.57351 | 31615 ft | 480 kts | 175° |
| 2026-05-04 18:11 | 0.06696 | 36.57493 | 31164 ft | 472 kts | 175° |
| 2026-05-04 18:11 | 0.03423 | 36.57633 | 30711 ft | 466 kts | 175° |
| 2026-05-04 18:11 | 0.00196 | 36.57773 | 30253 ft | 462 kts | 175° |
| 2026-05-04 18:12 | -0.03014 | 36.57912 | 29803 ft | 460 kts | 175° |
| 2026-05-04 18:12 | -0.06206 | 36.58049 | 29359 ft | 458 kts | 175° |
| 2026-05-04 18:12 | -0.09377 | 36.58185 | 28919 ft | 455 kts | 175° |
| 2026-05-04 18:12 | -0.12532 | 36.58321 | 28483 ft | 452 kts | 175° |
| 2026-05-04 18:13 | -0.15618 | 36.58454 | 28057 ft | 449 kts | 175° |
| 2026-05-04 18:13 | -0.18726 | 36.58587 | 27628 ft | 446 kts | 175° |
| 2026-05-04 18:13 | -0.24909 | 36.58853 | 26774 ft | 440 kts | 175° |
| 2026-05-04 18:14 | -0.27966 | 36.58985 | 26352 ft | 438 kts | 175° |
| 2026-05-04 18:14 | -0.30999 | 36.59116 | 25934 ft | 435 kts | 175° |
| 2026-05-04 18:14 | -0.34009 | 36.59245 | 25520 ft | 432 kts | 175° |
| 2026-05-04 18:15 | -0.39954 | 36.59501 | 24703 ft | 427 kts | 175° |
| 2026-05-04 18:15 | -0.45858 | 36.59756 | 23893 ft | 422 kts | 175° |
| 2026-05-04 18:15 | -0.48778 | 36.59881 | 23493 ft | 419 kts | 175° |
| 2026-05-04 18:16 | -0.51680 | 36.60006 | 23096 ft | 417 kts | 175° |
| 2026-05-04 18:16 | -0.54583 | 36.60130 | 22700 ft | 415 kts | 175° |
| 2026-05-04 18:16 | -0.57472 | 36.60253 | 22308 ft | 413 kts | 175° |
| 2026-05-04 18:17 | -0.63166 | 36.60497 | 21933 ft | 409 kts | 175° |
| 2026-05-04 18:17 | -0.66012 | 36.60620 | 21857 ft | 407 kts | 175° |
| 2026-05-04 18:17 | -0.71620 | 36.60861 | 21708 ft | 403 kts | 175° |
| 2026-05-04 18:18 | -0.74456 | 36.60983 | 21632 ft | 403 kts | 175° |
| 2026-05-04 18:18 | -0.77223 | 36.61102 | 21540 ft | 402 kts | 175° |
| 2026-05-04 18:18 | -0.80034 | 36.61224 | 21477 ft | 402 kts | 175° |
| 2026-05-04 18:18 | -0.82825 | 36.61344 | 21398 ft | 401 kts | 175° |
| 2026-05-04 18:19 | -0.88449 | 36.61586 | 21243 ft | 401 kts | 175° |
| 2026-05-04 18:19 | -0.91203 | 36.61705 | 21168 ft | 400 kts | 175° |
| 2026-05-04 18:19 | -0.93990 | 36.61825 | 21092 ft | 400 kts | 175° |
| 2026-05-04 18:20 | -0.96769 | 36.61945 | 21016 ft | 399 kts | 175° |
| 2026-05-04 18:20 | -0.99558 | 36.62065 | 20536 ft | 403 kts | 175° |
| 2026-05-04 18:20 | -1.02366 | 36.62187 | 19798 ft | 405 kts | 175° |
| 2026-05-04 18:20 | -1.05189 | 36.62309 | 19045 ft | 405 kts | 176° |
| 2026-05-04 18:21 | -1.07999 | 36.62430 | 18292 ft | 404 kts | 176° |
| 2026-05-04 18:21 | -1.10781 | 36.62549 | 17454 ft | 392 kts | 176° |
| 2026-05-04 18:21 | -1.13469 | 36.62663 | 16712 ft | 380 kts | 176° |
| 2026-05-04 18:21 | -1.16048 | 36.62774 | 15968 ft | 371 kts | 176° |
| 2026-05-04 18:22 | -1.18596 | 36.62887 | 15222 ft | 362 kts | 177° |
| 2026-05-04 18:22 | -1.21079 | 36.62998 | 14470 ft | 353 kts | 177° |
| 2026-05-04 18:22 | -1.23506 | 36.63101 | 13764 ft | 344 kts | 178° |
| 2026-05-04 18:22 | -1.25859 | 36.63201 | 13200 ft | 333 kts | 178° |
| 2026-05-04 18:23 | -1.28167 | 36.63299 | 12835 ft | 331 kts | 178° |
| 2026-05-04 18:23 | -1.30455 | 36.63393 | 12550 ft | 325 kts | 176° |
| 2026-05-04 18:23 | -1.32676 | 36.63486 | 12356 ft | 315 kts | 176° |
| 2026-05-04 18:23 | -1.34808 | 36.63579 | 12140 ft | 307 kts | 176° |
| 2026-05-04 18:24 | -1.36918 | 36.63672 | 11902 ft | 300 kts | 176° |
| 2026-05-04 18:24 | -1.38982 | 36.63825 | 11617 ft | 295 kts | 170° |
| 2026-05-04 18:24 | -1.40877 | 36.64530 | 11342 ft | 283 kts | 155° |
| 2026-05-04 18:24 | -1.42598 | 36.65388 | 11073 ft | 269 kts | 152° |
| 2026-05-04 18:25 | -1.44202 | 36.66223 | 10840 ft | 249 kts | 151° |
| 2026-05-04 18:25 | -1.45656 | 36.66981 | 10681 ft | 222 kts | 151° |
| 2026-05-04 18:25 | -1.46940 | 36.67721 | 10390 ft | 207 kts | 143° |
| 2026-05-04 18:25 | -1.47664 | 36.68876 | 10073 ft | 192 kts | 111° |
| 2026-05-04 18:26 | -1.47726 | 36.70183 | 10183 ft | 187 kts | 89° |
| 2026-05-04 18:26 | -1.47278 | 36.71389 | 10157 ft | 184 kts | 66° |
| 2026-05-04 18:26 | -1.46594 | 36.72447 | 10071 ft | 179 kts | 58° |
| 2026-05-04 18:26 | -1.45894 | 36.73477 | 9827 ft | 178 kts | 57° |
| 2026-05-04 18:27 | -1.45193 | 36.74485 | 9561 ft | 175 kts | 57° |
| 2026-05-04 18:27 | -1.44497 | 36.75473 | 9276 ft | 173 kts | 57° |
| 2026-05-04 18:27 | -1.43804 | 36.76449 | 9005 ft | 172 kts | 57° |
| 2026-05-04 18:27 | -1.43119 | 36.77408 | 8752 ft | 171 kts | 57° |
| 2026-05-04 18:28 | -1.42418 | 36.78381 | 8523 ft | 170 kts | 57° |
| 2026-05-04 18:28 | -1.41728 | 36.79329 | 8296 ft | 170 kts | 56° |
| 2026-05-04 18:28 | -1.41030 | 36.80281 | 8074 ft | 169 kts | 56° |
| 2026-05-04 18:28 | -1.40344 | 36.81215 | 7842 ft | 163 kts | 56° |
| 2026-05-04 18:29 | -1.39688 | 36.82109 | 7629 ft | 158 kts | 56° |
| 2026-05-04 18:29 | -1.39039 | 36.82998 | 7432 ft | 158 kts | 56° |
| 2026-05-04 18:29 | -1.38391 | 36.83888 | 7226 ft | 158 kts | 57° |
| 2026-05-04 18:29 | -1.37966 | 36.84475 | 7094 ft | 157 kts | 56° |
| 2026-05-04 18:30 | -1.36688 | 36.86239 | 6670 ft | 154 kts | 56° |
| 2026-05-04 18:30 | -1.36061 | 36.87103 | 6463 ft | 153 kts | 55° |
| 2026-05-04 18:30 | -1.35437 | 36.87960 | 6263 ft | 152 kts | 54° |
| 2026-05-04 18:31 | -1.34820 | 36.88809 | 6060 ft | 151 kts | 55° |
| 2026-05-04 18:31 | -1.34005 | 36.89943 | 5797 ft | 151 kts | 57° |
| 2026-05-04 18:31 | -1.33576 | 36.90515 | 5652 ft | 152 kts | 56° |
| 2026-05-04 18:31 | -1.32947 | 36.91369 | 5462 ft | 152 kts | 57° |
| 2026-05-04 18:32 | -1.32361 | 36.92168 | 5357 ft | 133 kts | 57° |
| 2026-05-04 18:32 | -1.31954 | 36.92765 | 5342 ft | 82 kts | 50° |
| 2026-05-04 18:32 | -1.31699 | 36.93092 | 5341 ft | 40 kts | 55° |
| 2026-05-04 18:32 | -1.31553 | 36.93291 | 5341 ft | 34 kts | 53° |
| 2026-05-04 18:33 | -1.31414 | 36.93483 | 5341 ft | 29 kts | 54° |
| 2026-05-04 18:33 | -1.31294 | 36.93649 | 5341 ft | 30 kts | 54° |
| 2026-05-04 18:33 | -1.31197 | 36.93782 | 5341 ft | 6 kts | 54° |
| 2026-05-04 18:33 | -1.31173 | 36.93817 | 5341 ft | 8 kts | 64° |
| 2026-05-04 18:34 | -1.31197 | 36.93849 | 5341 ft | 7 kts | 142° |
| 2026-05-04 18:34 | -1.31243 | 36.93883 | 5341 ft | 1 kts | 144° |
| 2026-05-04 18:34 | -1.31253 | 36.93891 | 5341 ft | 4 kts | 144° |
| 2026-05-04 18:34 | -1.31285 | 36.93915 | 5341 ft | 8 kts | 144° |
| 2026-05-04 18:35 | -1.31334 | 36.93950 | 5341 ft | 10 kts | 144° |
| 2026-05-04 18:35 | -1.31384 | 36.93986 | 5341 ft | 8 kts | 144° |
| 2026-05-04 18:35 | -1.31436 | 36.93994 | 5341 ft | 7 kts | 203° |
| 2026-05-04 18:35 | -1.31476 | 36.93957 | 5341 ft | 9 kts | 231° |
| 2026-05-04 18:36 | -1.31523 | 36.93891 | 5341 ft | 14 kts | 234° |
| 2026-05-04 18:36 | -1.31590 | 36.93800 | 5341 ft | 18 kts | 233° |
| 2026-05-04 18:36 | -1.31670 | 36.93693 | 5341 ft | 20 kts | 234° |
| 2026-05-04 18:36 | -1.31728 | 36.93613 | 5341 ft | 6 kts | 233° |
| 2026-05-04 18:37 | -1.31762 | 36.93567 | 5341 ft | 10 kts | 234° |
| 2026-05-04 18:37 | -1.31812 | 36.93497 | 5341 ft | 14 kts | 234° |
| 2026-05-04 18:37 | -1.31877 | 36.93408 | 5341 ft | 17 kts | 233° |
| 2026-05-04 18:37 | -1.31956 | 36.93300 | 5341 ft | 21 kts | 234° |
| 2026-05-04 18:38 | -1.32046 | 36.93176 | 5341 ft | 20 kts | 234° |
| 2026-05-04 18:38 | -1.32110 | 36.93089 | 5341 ft | 15 kts | 234° |
| 2026-05-04 18:38 | -1.32178 | 36.92995 | 5341 ft | 18 kts | 234° |
| 2026-05-04 18:38 | -1.32242 | 36.92906 | 5341 ft | 15 kts | 234° |
| 2026-05-04 18:39 | -1.32297 | 36.92831 | 5341 ft | 14 kts | 233° |
| 2026-05-04 18:39 | -1.32354 | 36.92752 | 5341 ft | 15 kts | 234° |
| 2026-05-04 18:39 | -1.32423 | 36.92656 | 5341 ft | 19 kts | 234° |
| 2026-05-04 18:39 | -1.32492 | 36.92562 | 5341 ft | 16 kts | 234° |
| 2026-05-04 18:40 | -1.32562 | 36.92463 | 5341 ft | 19 kts | 234° |
| 2026-05-04 18:40 | -1.32617 | 36.92387 | 5341 ft | 12 kts | 234° |
| 2026-05-04 18:40 | -1.32673 | 36.92311 | 5341 ft | 12 kts | 234° |
| 2026-05-04 18:40 | -1.32717 | 36.92250 | 5341 ft | 11 kts | 233° |
| 2026-05-04 18:41 | -1.32753 | 36.92209 | 5341 ft | 6 kts | 210° |
| 2026-05-04 18:41 | -1.32789 | 36.92210 | 5341 ft | 5 kts | 159° |
| 2026-05-04 18:41 | -1.32824 | 36.92230 | 5341 ft | 5 kts | 146° |
| 2026-05-04 18:41 | -1.32849 | 36.92247 | 5341 ft | 4 kts | 146° |
| 2026-05-04 18:42 | -1.32879 | 36.92257 | 5341 ft | 5 kts | 176° |
| 2026-05-04 18:42 | -1.32923 | 36.92246 | 5341 ft | 8 kts | 199° |
| 2026-05-04 18:42 | -1.32981 | 36.92227 | 5341 ft | 10 kts | 195° |
| 2026-05-04 18:42 | -1.33043 | 36.92218 | 5341 ft | 7 kts | 181° |
| 2026-05-04 18:43 | -1.33092 | 36.92221 | 5341 ft | 4 kts | 172° |
| 2026-05-04 18:43 | -1.33110 | 36.92225 | 5341 ft | 2 kts | 160° |
| 2026-05-04 18:43 | -1.33114 | 36.92231 | 5341 ft | 1 kts | 115° |
| 2026-05-04 18:43 | -1.33117 | 36.92245 | 5341 ft | 4 kts | 102° |
| 2026-05-04 18:44 | -1.33117 | 36.92270 | 5341 ft | 5 kts | 80° |
| 2026-05-04 18:44 | -1.33113 | 36.92290 | 5341 ft | 4 kts | 78° |
| 2026-05-04 18:44 | -1.33109 | 36.92308 | 5341 ft | 2 kts | 78° |
| 2026-05-04 18:44 | -1.33108 | 36.92312 | 5341 ft | 0 kts | 78° |